<?xml version="1.0" encoding="UTF-8" standalone="no" ?>
<gpx xmlns="http://www.topografix.com/GPX/1/1" xmlns:xsi="http://www.w3.org/2001/XMLSchema-instance" xsi:schemaLocation="http://www.topografix.com/GPX/1/1 http://www.topografix.com/GPX/1/1/gpx.xsd" version="1.1" creator="VisuGPX - https://www.visugpx.com">
  <metadata>
    <name>Le tour de la Gardiole 14-1-2021</name>
    <desc><![CDATA[Randonnée permettant de faire le tour de la montagne de 'La Gardiole',située entre Montpellier et Sète. Départ de l'abbaye de Saint Félix de Montceau-Gigean, site historique du 11ème siècle.De très jolis multiples points de vue, vers le nord jusqu'aux contreforts des Cévennes, vers le sud, la Méditérranée  du Grau du Roi jusqu'à Agde avec tous les étangs de la région, étangs de Palavas, étangs de Vic la Guardiole, étang de Thau...et le Mont St Clair-Sète. Vues sur les vignobles du Muscat de Frontignan...et avec un peu de chance on peut rencontrer en période hivernale, notre cas, un troupeau de moutons qui 'hiverne' sur cette très agréable 'petite' montagne.]]></desc>
  </metadata>
  <trk>
    <name><![CDATA[Gardiole 14-1-2021]]></name>
    <trkseg>
      <trkpt lat="43.48714" lon="3.7267">
        <ele>161.78</ele>
        <time>2021-01-14T08:27:14Z</time>
      </trkpt>
      <trkpt lat="43.48714" lon="3.7267">
        <ele>161.78</ele>
        <time>2021-01-14T08:27:15Z</time>
      </trkpt>
      <trkpt lat="43.48715" lon="3.72668">
        <ele>161.99</ele>
        <time>2021-01-14T08:27:19Z</time>
      </trkpt>
      <trkpt lat="43.48714" lon="3.72674">
        <ele>162.01</ele>
        <time>2021-01-14T08:27:30Z</time>
      </trkpt>
      <trkpt lat="43.48713" lon="3.72675">
        <ele>161.94</ele>
        <time>2021-01-14T08:27:31Z</time>
      </trkpt>
      <trkpt lat="43.4872" lon="3.72677">
        <ele>162.13</ele>
        <time>2021-01-14T08:28:06Z</time>
      </trkpt>
      <trkpt lat="43.48716" lon="3.72676">
        <ele>161.9</ele>
        <time>2021-01-14T08:28:37Z</time>
      </trkpt>
      <trkpt lat="43.4872" lon="3.72683">
        <ele>162.1</ele>
        <time>2021-01-14T08:29:03Z</time>
      </trkpt>
      <trkpt lat="43.48722" lon="3.72692">
        <ele>161.65</ele>
        <time>2021-01-14T08:29:21Z</time>
      </trkpt>
      <trkpt lat="43.48723" lon="3.72695">
        <ele>161.55</ele>
        <time>2021-01-14T08:29:23Z</time>
      </trkpt>
      <trkpt lat="43.48737" lon="3.72712">
        <ele>159.78</ele>
        <time>2021-01-14T08:29:42Z</time>
      </trkpt>
      <trkpt lat="43.48738" lon="3.72741">
        <ele>158.56</ele>
        <time>2021-01-14T08:30:03Z</time>
      </trkpt>
      <trkpt lat="43.48735" lon="3.72751">
        <ele>159.11</ele>
        <time>2021-01-14T08:30:23Z</time>
      </trkpt>
      <trkpt lat="43.48731" lon="3.72778">
        <ele>160.46</ele>
        <time>2021-01-14T08:30:42Z</time>
      </trkpt>
      <trkpt lat="43.4873" lon="3.72803">
        <ele>161.49</ele>
        <time>2021-01-14T08:31:04Z</time>
      </trkpt>
      <trkpt lat="43.48729" lon="3.72802">
        <ele>161.55</ele>
        <time>2021-01-14T08:31:05Z</time>
      </trkpt>
      <trkpt lat="43.48712" lon="3.72808">
        <ele>163.05</ele>
        <time>2021-01-14T08:31:21Z</time>
      </trkpt>
      <trkpt lat="43.48701" lon="3.72804">
        <ele>161.88</ele>
        <time>2021-01-14T08:31:40Z</time>
      </trkpt>
      <trkpt lat="43.48699" lon="3.72815">
        <ele>162.86</ele>
        <time>2021-01-14T08:31:53Z</time>
      </trkpt>
      <trkpt lat="43.48695" lon="3.72836">
        <ele>165.4</ele>
        <time>2021-01-14T08:32:08Z</time>
      </trkpt>
      <trkpt lat="43.48693" lon="3.7285">
        <ele>167.03</ele>
        <time>2021-01-14T08:32:30Z</time>
      </trkpt>
      <trkpt lat="43.48688" lon="3.72863">
        <ele>169.41</ele>
        <time>2021-01-14T08:32:44Z</time>
      </trkpt>
      <trkpt lat="43.48688" lon="3.72875">
        <ele>171.93</ele>
        <time>2021-01-14T08:33:01Z</time>
      </trkpt>
      <trkpt lat="43.48682" lon="3.72892">
        <ele>174.95</ele>
        <time>2021-01-14T08:33:19Z</time>
      </trkpt>
      <trkpt lat="43.48677" lon="3.72912">
        <ele>177.38</ele>
        <time>2021-01-14T08:33:39Z</time>
      </trkpt>
      <trkpt lat="43.48673" lon="3.72928">
        <ele>180.44</ele>
        <time>2021-01-14T08:33:55Z</time>
      </trkpt>
      <trkpt lat="43.48669" lon="3.72946">
        <ele>182.72</ele>
        <time>2021-01-14T08:34:15Z</time>
      </trkpt>
      <trkpt lat="43.48658" lon="3.72959">
        <ele>185.73</ele>
        <time>2021-01-14T08:34:36Z</time>
      </trkpt>
      <trkpt lat="43.4865" lon="3.7297">
        <ele>187.89</ele>
        <time>2021-01-14T08:34:53Z</time>
      </trkpt>
      <trkpt lat="43.48647" lon="3.72988">
        <ele>190.49</ele>
        <time>2021-01-14T08:35:10Z</time>
      </trkpt>
      <trkpt lat="43.48643" lon="3.72988">
        <ele>191.59</ele>
        <time>2021-01-14T08:35:29Z</time>
      </trkpt>
      <trkpt lat="43.48637" lon="3.73">
        <ele>193.8</ele>
        <time>2021-01-14T08:35:48Z</time>
      </trkpt>
      <trkpt lat="43.48638" lon="3.7302">
        <ele>196.83</ele>
        <time>2021-01-14T08:36:05Z</time>
      </trkpt>
      <trkpt lat="43.4864" lon="3.73032">
        <ele>199.84</ele>
        <time>2021-01-14T08:36:19Z</time>
      </trkpt>
      <trkpt lat="43.48633" lon="3.73046">
        <ele>202.04</ele>
        <time>2021-01-14T08:36:37Z</time>
      </trkpt>
      <trkpt lat="43.48632" lon="3.73054">
        <ele>203.63</ele>
        <time>2021-01-14T08:36:45Z</time>
      </trkpt>
      <trkpt lat="43.48623" lon="3.73058">
        <ele>204.88</ele>
        <time>2021-01-14T08:37:17Z</time>
      </trkpt>
      <trkpt lat="43.48619" lon="3.73075">
        <ele>207.95</ele>
        <time>2021-01-14T08:37:35Z</time>
      </trkpt>
      <trkpt lat="43.48614" lon="3.73086">
        <ele>211.02</ele>
        <time>2021-01-14T08:37:51Z</time>
      </trkpt>
      <trkpt lat="43.48614" lon="3.73089">
        <ele>211.27</ele>
        <time>2021-01-14T08:38:13Z</time>
      </trkpt>
      <trkpt lat="43.48615" lon="3.73101">
        <ele>212.96</ele>
        <time>2021-01-14T08:38:32Z</time>
      </trkpt>
      <trkpt lat="43.48615" lon="3.7312">
        <ele>216.17</ele>
        <time>2021-01-14T08:38:48Z</time>
      </trkpt>
      <trkpt lat="43.48608" lon="3.7313">
        <ele>218.53</ele>
        <time>2021-01-14T08:39:06Z</time>
      </trkpt>
      <trkpt lat="43.48606" lon="3.7313">
        <ele>218.83</ele>
        <time>2021-01-14T08:39:31Z</time>
      </trkpt>
      <trkpt lat="43.48605" lon="3.73127">
        <ele>219.14</ele>
        <time>2021-01-14T08:39:51Z</time>
      </trkpt>
      <trkpt lat="43.48604" lon="3.73126">
        <ele>220.27</ele>
        <time>2021-01-14T08:40:21Z</time>
      </trkpt>
      <trkpt lat="43.48605" lon="3.73127">
        <ele>220.08</ele>
        <time>2021-01-14T08:40:44Z</time>
      </trkpt>
      <trkpt lat="43.48603" lon="3.73129">
        <ele>220.04</ele>
        <time>2021-01-14T08:40:48Z</time>
      </trkpt>
      <trkpt lat="43.48588" lon="3.73135">
        <ele>220.66</ele>
        <time>2021-01-14T08:41:04Z</time>
      </trkpt>
      <trkpt lat="43.48581" lon="3.73136">
        <ele>220.9</ele>
        <time>2021-01-14T08:41:21Z</time>
      </trkpt>
      <trkpt lat="43.48579" lon="3.73138">
        <ele>221.25</ele>
        <time>2021-01-14T08:41:26Z</time>
      </trkpt>
      <trkpt lat="43.48575" lon="3.73142">
        <ele>221.45</ele>
        <time>2021-01-14T08:41:30Z</time>
      </trkpt>
      <trkpt lat="43.4856" lon="3.73153">
        <ele>221.85</ele>
        <time>2021-01-14T08:41:45Z</time>
      </trkpt>
      <trkpt lat="43.48552" lon="3.73161">
        <ele>221.38</ele>
        <time>2021-01-14T08:41:54Z</time>
      </trkpt>
      <trkpt lat="43.4855" lon="3.73181">
        <ele>222.12</ele>
        <time>2021-01-14T08:42:08Z</time>
      </trkpt>
      <trkpt lat="43.48551" lon="3.73184">
        <ele>222.35</ele>
        <time>2021-01-14T08:42:10Z</time>
      </trkpt>
      <trkpt lat="43.48552" lon="3.73193">
        <ele>222.49</ele>
        <time>2021-01-14T08:42:17Z</time>
      </trkpt>
      <trkpt lat="43.48555" lon="3.73204">
        <ele>222.17</ele>
        <time>2021-01-14T08:42:25Z</time>
      </trkpt>
      <trkpt lat="43.4856" lon="3.73233">
        <ele>222.3</ele>
        <time>2021-01-14T08:42:45Z</time>
      </trkpt>
      <trkpt lat="43.48557" lon="3.73254">
        <ele>222.26</ele>
        <time>2021-01-14T08:42:59Z</time>
      </trkpt>
      <trkpt lat="43.48553" lon="3.73264">
        <ele>222.38</ele>
        <time>2021-01-14T08:43:05Z</time>
      </trkpt>
      <trkpt lat="43.48537" lon="3.73288">
        <ele>223.25</ele>
        <time>2021-01-14T08:43:24Z</time>
      </trkpt>
      <trkpt lat="43.48516" lon="3.733">
        <ele>223.48</ele>
        <time>2021-01-14T08:43:41Z</time>
      </trkpt>
      <trkpt lat="43.48495" lon="3.73307">
        <ele>223.97</ele>
        <time>2021-01-14T08:43:59Z</time>
      </trkpt>
      <trkpt lat="43.48493" lon="3.73309">
        <ele>223.98</ele>
        <time>2021-01-14T08:44:01Z</time>
      </trkpt>
      <trkpt lat="43.48482" lon="3.73312">
        <ele>224.48</ele>
        <time>2021-01-14T08:44:11Z</time>
      </trkpt>
      <trkpt lat="43.4846" lon="3.73318">
        <ele>225.13</ele>
        <time>2021-01-14T08:44:29Z</time>
      </trkpt>
      <trkpt lat="43.4844" lon="3.7332">
        <ele>226.3</ele>
        <time>2021-01-14T08:44:48Z</time>
      </trkpt>
      <trkpt lat="43.48423" lon="3.73327">
        <ele>228.27</ele>
        <time>2021-01-14T08:45:06Z</time>
      </trkpt>
      <trkpt lat="43.48408" lon="3.73345">
        <ele>229.19</ele>
        <time>2021-01-14T08:45:24Z</time>
      </trkpt>
      <trkpt lat="43.48398" lon="3.73354">
        <ele>229.46</ele>
        <time>2021-01-14T08:45:37Z</time>
      </trkpt>
      <trkpt lat="43.48391" lon="3.73358">
        <ele>228.74</ele>
        <time>2021-01-14T08:45:52Z</time>
      </trkpt>
      <trkpt lat="43.48385" lon="3.73368">
        <ele>228.81</ele>
        <time>2021-01-14T08:46:00Z</time>
      </trkpt>
      <trkpt lat="43.4838" lon="3.73373">
        <ele>228.9</ele>
        <time>2021-01-14T08:46:07Z</time>
      </trkpt>
      <trkpt lat="43.48368" lon="3.73379">
        <ele>227.78</ele>
        <time>2021-01-14T08:46:19Z</time>
      </trkpt>
      <trkpt lat="43.48363" lon="3.73381">
        <ele>227.09</ele>
        <time>2021-01-14T08:46:24Z</time>
      </trkpt>
      <trkpt lat="43.48343" lon="3.7339">
        <ele>225.85</ele>
        <time>2021-01-14T08:46:42Z</time>
      </trkpt>
      <trkpt lat="43.48321" lon="3.73393">
        <ele>225.28</ele>
        <time>2021-01-14T08:46:59Z</time>
      </trkpt>
      <trkpt lat="43.4829" lon="3.73399">
        <ele>225.03</ele>
        <time>2021-01-14T08:47:24Z</time>
      </trkpt>
      <trkpt lat="43.48262" lon="3.73412">
        <ele>224.86</ele>
        <time>2021-01-14T08:47:49Z</time>
      </trkpt>
      <trkpt lat="43.48245" lon="3.73442">
        <ele>224.88</ele>
        <time>2021-01-14T08:48:12Z</time>
      </trkpt>
      <trkpt lat="43.48239" lon="3.73464">
        <ele>224</ele>
        <time>2021-01-14T08:48:28Z</time>
      </trkpt>
      <trkpt lat="43.48238" lon="3.7348">
        <ele>223.52</ele>
        <time>2021-01-14T08:48:38Z</time>
      </trkpt>
      <trkpt lat="43.48238" lon="3.73483">
        <ele>223.5</ele>
        <time>2021-01-14T08:48:40Z</time>
      </trkpt>
      <trkpt lat="43.48239" lon="3.7349">
        <ele>223.17</ele>
        <time>2021-01-14T08:48:44Z</time>
      </trkpt>
      <trkpt lat="43.48243" lon="3.73508">
        <ele>222.54</ele>
        <time>2021-01-14T08:48:57Z</time>
      </trkpt>
      <trkpt lat="43.48254" lon="3.73543">
        <ele>223.16</ele>
        <time>2021-01-14T08:49:21Z</time>
      </trkpt>
      <trkpt lat="43.4827" lon="3.73578">
        <ele>223.39</ele>
        <time>2021-01-14T08:49:45Z</time>
      </trkpt>
      <trkpt lat="43.48275" lon="3.73603">
        <ele>223.5</ele>
        <time>2021-01-14T08:50:00Z</time>
      </trkpt>
      <trkpt lat="43.48278" lon="3.73631">
        <ele>223.51</ele>
        <time>2021-01-14T08:50:16Z</time>
      </trkpt>
      <trkpt lat="43.48278" lon="3.73636">
        <ele>223.45</ele>
        <time>2021-01-14T08:50:19Z</time>
      </trkpt>
      <trkpt lat="43.48283" lon="3.73664">
        <ele>223.41</ele>
        <time>2021-01-14T08:50:37Z</time>
      </trkpt>
      <trkpt lat="43.48282" lon="3.73668">
        <ele>223.45</ele>
        <time>2021-01-14T08:50:39Z</time>
      </trkpt>
      <trkpt lat="43.48282" lon="3.73671">
        <ele>223.47</ele>
        <time>2021-01-14T08:50:41Z</time>
      </trkpt>
      <trkpt lat="43.48279" lon="3.73694">
        <ele>223.51</ele>
        <time>2021-01-14T08:50:57Z</time>
      </trkpt>
      <trkpt lat="43.48275" lon="3.73706">
        <ele>224.66</ele>
        <time>2021-01-14T08:51:08Z</time>
      </trkpt>
      <trkpt lat="43.48268" lon="3.73722">
        <ele>224.85</ele>
        <time>2021-01-14T08:51:21Z</time>
      </trkpt>
      <trkpt lat="43.48261" lon="3.73739">
        <ele>225.3</ele>
        <time>2021-01-14T08:51:35Z</time>
      </trkpt>
      <trkpt lat="43.48251" lon="3.73766">
        <ele>224.96</ele>
        <time>2021-01-14T08:51:52Z</time>
      </trkpt>
      <trkpt lat="43.48237" lon="3.738">
        <ele>224.66</ele>
        <time>2021-01-14T08:52:15Z</time>
      </trkpt>
      <trkpt lat="43.48224" lon="3.73833">
        <ele>225</ele>
        <time>2021-01-14T08:52:37Z</time>
      </trkpt>
      <trkpt lat="43.48212" lon="3.73864">
        <ele>225.62</ele>
        <time>2021-01-14T08:52:59Z</time>
      </trkpt>
      <trkpt lat="43.48202" lon="3.73891">
        <ele>225.35</ele>
        <time>2021-01-14T08:53:17Z</time>
      </trkpt>
      <trkpt lat="43.48193" lon="3.73916">
        <ele>225.6</ele>
        <time>2021-01-14T08:53:34Z</time>
      </trkpt>
      <trkpt lat="43.48188" lon="3.73944">
        <ele>225.62</ele>
        <time>2021-01-14T08:53:51Z</time>
      </trkpt>
      <trkpt lat="43.48186" lon="3.73966">
        <ele>225.38</ele>
        <time>2021-01-14T08:54:05Z</time>
      </trkpt>
      <trkpt lat="43.48184" lon="3.73989">
        <ele>224.96</ele>
        <time>2021-01-14T08:54:21Z</time>
      </trkpt>
      <trkpt lat="43.48184" lon="3.73991">
        <ele>224.88</ele>
        <time>2021-01-14T08:54:22Z</time>
      </trkpt>
      <trkpt lat="43.48182" lon="3.74018">
        <ele>224.35</ele>
        <time>2021-01-14T08:54:38Z</time>
      </trkpt>
      <trkpt lat="43.48182" lon="3.74022">
        <ele>224.32</ele>
        <time>2021-01-14T08:54:40Z</time>
      </trkpt>
      <trkpt lat="43.48179" lon="3.74045">
        <ele>223.39</ele>
        <time>2021-01-14T08:54:58Z</time>
      </trkpt>
      <trkpt lat="43.48183" lon="3.7405">
        <ele>223.51</ele>
        <time>2021-01-14T08:55:11Z</time>
      </trkpt>
      <trkpt lat="43.48184" lon="3.7405">
        <ele>223.45</ele>
        <time>2021-01-14T08:55:12Z</time>
      </trkpt>
      <trkpt lat="43.48189" lon="3.74053">
        <ele>223.09</ele>
        <time>2021-01-14T08:55:33Z</time>
      </trkpt>
      <trkpt lat="43.48191" lon="3.74047">
        <ele>223.19</ele>
        <time>2021-01-14T08:56:01Z</time>
      </trkpt>
      <trkpt lat="43.48193" lon="3.74047">
        <ele>223.83</ele>
        <time>2021-01-14T08:56:26Z</time>
      </trkpt>
      <trkpt lat="43.48202" lon="3.74044">
        <ele>222.67</ele>
        <time>2021-01-14T08:56:36Z</time>
      </trkpt>
      <trkpt lat="43.48225" lon="3.74042">
        <ele>223.23</ele>
        <time>2021-01-14T08:56:57Z</time>
      </trkpt>
      <trkpt lat="43.48244" lon="3.74043">
        <ele>223.39</ele>
        <time>2021-01-14T08:57:13Z</time>
      </trkpt>
      <trkpt lat="43.48262" lon="3.74042">
        <ele>223.88</ele>
        <time>2021-01-14T08:57:29Z</time>
      </trkpt>
      <trkpt lat="43.48279" lon="3.74046">
        <ele>223.75</ele>
        <time>2021-01-14T08:57:43Z</time>
      </trkpt>
      <trkpt lat="43.4829" lon="3.7405">
        <ele>224.07</ele>
        <time>2021-01-14T08:57:54Z</time>
      </trkpt>
      <trkpt lat="43.48294" lon="3.74051">
        <ele>224.18</ele>
        <time>2021-01-14T08:57:57Z</time>
      </trkpt>
      <trkpt lat="43.48313" lon="3.74056">
        <ele>224.41</ele>
        <time>2021-01-14T08:58:15Z</time>
      </trkpt>
      <trkpt lat="43.48315" lon="3.74057">
        <ele>224.49</ele>
        <time>2021-01-14T08:58:17Z</time>
      </trkpt>
      <trkpt lat="43.48343" lon="3.74068">
        <ele>224.92</ele>
        <time>2021-01-14T08:58:39Z</time>
      </trkpt>
      <trkpt lat="43.48363" lon="3.7408">
        <ele>224.52</ele>
        <time>2021-01-14T08:58:56Z</time>
      </trkpt>
      <trkpt lat="43.48372" lon="3.74085">
        <ele>224.33</ele>
        <time>2021-01-14T08:59:04Z</time>
      </trkpt>
      <trkpt lat="43.48381" lon="3.74089">
        <ele>224.28</ele>
        <time>2021-01-14T08:59:13Z</time>
      </trkpt>
      <trkpt lat="43.48393" lon="3.74096">
        <ele>224.44</ele>
        <time>2021-01-14T08:59:24Z</time>
      </trkpt>
      <trkpt lat="43.48408" lon="3.74108">
        <ele>224.34</ele>
        <time>2021-01-14T08:59:38Z</time>
      </trkpt>
      <trkpt lat="43.48424" lon="3.74115">
        <ele>224.44</ele>
        <time>2021-01-14T08:59:53Z</time>
      </trkpt>
      <trkpt lat="43.48441" lon="3.74124">
        <ele>224.16</ele>
        <time>2021-01-14T09:00:09Z</time>
      </trkpt>
      <trkpt lat="43.48455" lon="3.74132">
        <ele>224.14</ele>
        <time>2021-01-14T09:00:22Z</time>
      </trkpt>
      <trkpt lat="43.48469" lon="3.74142">
        <ele>225.1</ele>
        <time>2021-01-14T09:00:43Z</time>
      </trkpt>
      <trkpt lat="43.48471" lon="3.74146">
        <ele>224.79</ele>
        <time>2021-01-14T09:01:05Z</time>
      </trkpt>
      <trkpt lat="43.48473" lon="3.74149">
        <ele>224.67</ele>
        <time>2021-01-14T09:01:37Z</time>
      </trkpt>
      <trkpt lat="43.48473" lon="3.74149">
        <ele>224.79</ele>
        <time>2021-01-14T09:02:03Z</time>
      </trkpt>
      <trkpt lat="43.48483" lon="3.74149">
        <ele>225.54</ele>
        <time>2021-01-14T09:02:25Z</time>
      </trkpt>
      <trkpt lat="43.48493" lon="3.74153">
        <ele>225.74</ele>
        <time>2021-01-14T09:02:38Z</time>
      </trkpt>
      <trkpt lat="43.48495" lon="3.74155">
        <ele>225.93</ele>
        <time>2021-01-14T09:02:40Z</time>
      </trkpt>
      <trkpt lat="43.48496" lon="3.74156">
        <ele>226.07</ele>
        <time>2021-01-14T09:02:42Z</time>
      </trkpt>
      <trkpt lat="43.48509" lon="3.74165">
        <ele>225.79</ele>
        <time>2021-01-14T09:02:54Z</time>
      </trkpt>
      <trkpt lat="43.48513" lon="3.74167">
        <ele>225.7</ele>
        <time>2021-01-14T09:02:57Z</time>
      </trkpt>
      <trkpt lat="43.48529" lon="3.74181">
        <ele>226.39</ele>
        <time>2021-01-14T09:03:13Z</time>
      </trkpt>
      <trkpt lat="43.48543" lon="3.74196">
        <ele>226.44</ele>
        <time>2021-01-14T09:03:28Z</time>
      </trkpt>
      <trkpt lat="43.48544" lon="3.74197">
        <ele>226.52</ele>
        <time>2021-01-14T09:03:29Z</time>
      </trkpt>
      <trkpt lat="43.48546" lon="3.74199">
        <ele>226.64</ele>
        <time>2021-01-14T09:03:31Z</time>
      </trkpt>
      <trkpt lat="43.4855" lon="3.74202">
        <ele>226.83</ele>
        <time>2021-01-14T09:03:35Z</time>
      </trkpt>
      <trkpt lat="43.48567" lon="3.74215">
        <ele>227.48</ele>
        <time>2021-01-14T09:03:50Z</time>
      </trkpt>
      <trkpt lat="43.48583" lon="3.74228">
        <ele>228.13</ele>
        <time>2021-01-14T09:04:06Z</time>
      </trkpt>
      <trkpt lat="43.486" lon="3.74241">
        <ele>229.58</ele>
        <time>2021-01-14T09:04:21Z</time>
      </trkpt>
      <trkpt lat="43.48609" lon="3.74249">
        <ele>229.83</ele>
        <time>2021-01-14T09:04:33Z</time>
      </trkpt>
      <trkpt lat="43.4861" lon="3.74252">
        <ele>230.08</ele>
        <time>2021-01-14T09:04:53Z</time>
      </trkpt>
      <trkpt lat="43.48614" lon="3.74253">
        <ele>230.03</ele>
        <time>2021-01-14T09:05:02Z</time>
      </trkpt>
      <trkpt lat="43.4863" lon="3.74264">
        <ele>230.96</ele>
        <time>2021-01-14T09:05:15Z</time>
      </trkpt>
      <trkpt lat="43.48645" lon="3.74272">
        <ele>230.83</ele>
        <time>2021-01-14T09:05:29Z</time>
      </trkpt>
      <trkpt lat="43.48657" lon="3.74286">
        <ele>230.73</ele>
        <time>2021-01-14T09:05:45Z</time>
      </trkpt>
      <trkpt lat="43.4866" lon="3.74291">
        <ele>230.69</ele>
        <time>2021-01-14T09:05:49Z</time>
      </trkpt>
      <trkpt lat="43.48678" lon="3.74307">
        <ele>230.34</ele>
        <time>2021-01-14T09:06:07Z</time>
      </trkpt>
      <trkpt lat="43.48679" lon="3.74308">
        <ele>230.39</ele>
        <time>2021-01-14T09:06:08Z</time>
      </trkpt>
      <trkpt lat="43.48689" lon="3.7431">
        <ele>230.56</ele>
        <time>2021-01-14T09:06:20Z</time>
      </trkpt>
      <trkpt lat="43.48703" lon="3.74313">
        <ele>230.72</ele>
        <time>2021-01-14T09:06:33Z</time>
      </trkpt>
      <trkpt lat="43.48717" lon="3.74319">
        <ele>228.94</ele>
        <time>2021-01-14T09:06:47Z</time>
      </trkpt>
      <trkpt lat="43.48735" lon="3.74328">
        <ele>227.85</ele>
        <time>2021-01-14T09:07:03Z</time>
      </trkpt>
      <trkpt lat="43.4874" lon="3.74332">
        <ele>227.29</ele>
        <time>2021-01-14T09:07:07Z</time>
      </trkpt>
      <trkpt lat="43.48756" lon="3.74344">
        <ele>226.64</ele>
        <time>2021-01-14T09:07:22Z</time>
      </trkpt>
      <trkpt lat="43.4877" lon="3.74358">
        <ele>226.48</ele>
        <time>2021-01-14T09:07:37Z</time>
      </trkpt>
      <trkpt lat="43.48782" lon="3.74369">
        <ele>225.84</ele>
        <time>2021-01-14T09:07:49Z</time>
      </trkpt>
      <trkpt lat="43.48789" lon="3.74375">
        <ele>226.64</ele>
        <time>2021-01-14T09:07:56Z</time>
      </trkpt>
      <trkpt lat="43.48803" lon="3.74389">
        <ele>227.56</ele>
        <time>2021-01-14T09:08:10Z</time>
      </trkpt>
      <trkpt lat="43.48818" lon="3.74405">
        <ele>227.01</ele>
        <time>2021-01-14T09:08:25Z</time>
      </trkpt>
      <trkpt lat="43.48823" lon="3.74411">
        <ele>226.49</ele>
        <time>2021-01-14T09:08:31Z</time>
      </trkpt>
      <trkpt lat="43.48834" lon="3.74425">
        <ele>226.65</ele>
        <time>2021-01-14T09:08:44Z</time>
      </trkpt>
      <trkpt lat="43.48834" lon="3.74426">
        <ele>226.43</ele>
        <time>2021-01-14T09:08:45Z</time>
      </trkpt>
      <trkpt lat="43.48838" lon="3.74431">
        <ele>226.16</ele>
        <time>2021-01-14T09:08:49Z</time>
      </trkpt>
      <trkpt lat="43.4885" lon="3.74452">
        <ele>223.89</ele>
        <time>2021-01-14T09:09:07Z</time>
      </trkpt>
      <trkpt lat="43.4886" lon="3.74477">
        <ele>222.91</ele>
        <time>2021-01-14T09:09:28Z</time>
      </trkpt>
      <trkpt lat="43.48867" lon="3.74495">
        <ele>223.2</ele>
        <time>2021-01-14T09:09:42Z</time>
      </trkpt>
      <trkpt lat="43.48867" lon="3.74529">
        <ele>223.25</ele>
        <time>2021-01-14T09:10:02Z</time>
      </trkpt>
      <trkpt lat="43.48867" lon="3.74563">
        <ele>222.78</ele>
        <time>2021-01-14T09:10:24Z</time>
      </trkpt>
      <trkpt lat="43.48868" lon="3.74581">
        <ele>222.21</ele>
        <time>2021-01-14T09:10:36Z</time>
      </trkpt>
      <trkpt lat="43.48868" lon="3.74591">
        <ele>222</ele>
        <time>2021-01-14T09:10:40Z</time>
      </trkpt>
      <trkpt lat="43.48871" lon="3.74633">
        <ele>221</ele>
        <time>2021-01-14T09:11:04Z</time>
      </trkpt>
      <trkpt lat="43.48873" lon="3.74655">
        <ele>219.96</ele>
        <time>2021-01-14T09:11:22Z</time>
      </trkpt>
      <trkpt lat="43.48877" lon="3.74678">
        <ele>219.91</ele>
        <time>2021-01-14T09:11:37Z</time>
      </trkpt>
      <trkpt lat="43.48884" lon="3.74705">
        <ele>218.57</ele>
        <time>2021-01-14T09:11:54Z</time>
      </trkpt>
      <trkpt lat="43.48885" lon="3.74717">
        <ele>217.72</ele>
        <time>2021-01-14T09:12:12Z</time>
      </trkpt>
      <trkpt lat="43.48886" lon="3.74718">
        <ele>217.21</ele>
        <time>2021-01-14T09:12:34Z</time>
      </trkpt>
      <trkpt lat="43.48888" lon="3.74715">
        <ele>218.8</ele>
        <time>2021-01-14T09:12:55Z</time>
      </trkpt>
      <trkpt lat="43.48883" lon="3.74703">
        <ele>218.91</ele>
        <time>2021-01-14T09:13:16Z</time>
      </trkpt>
      <trkpt lat="43.4888" lon="3.74702">
        <ele>217.61</ele>
        <time>2021-01-14T09:13:33Z</time>
      </trkpt>
      <trkpt lat="43.4888" lon="3.74702">
        <ele>217.87</ele>
        <time>2021-01-14T09:14:05Z</time>
      </trkpt>
      <trkpt lat="43.48884" lon="3.74707">
        <ele>217.41</ele>
        <time>2021-01-14T09:14:31Z</time>
      </trkpt>
      <trkpt lat="43.48886" lon="3.74712">
        <ele>217.21</ele>
        <time>2021-01-14T09:14:52Z</time>
      </trkpt>
      <trkpt lat="43.48886" lon="3.74711">
        <ele>217.61</ele>
        <time>2021-01-14T09:15:20Z</time>
      </trkpt>
      <trkpt lat="43.48887" lon="3.74711">
        <ele>217.19</ele>
        <time>2021-01-14T09:15:46Z</time>
      </trkpt>
      <trkpt lat="43.48894" lon="3.74718">
        <ele>217.73</ele>
        <time>2021-01-14T09:16:03Z</time>
      </trkpt>
      <trkpt lat="43.48895" lon="3.74719">
        <ele>217.75</ele>
        <time>2021-01-14T09:16:05Z</time>
      </trkpt>
      <trkpt lat="43.48908" lon="3.74732">
        <ele>217.6</ele>
        <time>2021-01-14T09:16:21Z</time>
      </trkpt>
      <trkpt lat="43.48912" lon="3.74737">
        <ele>217.26</ele>
        <time>2021-01-14T09:16:26Z</time>
      </trkpt>
      <trkpt lat="43.48916" lon="3.74744">
        <ele>216.92</ele>
        <time>2021-01-14T09:16:31Z</time>
      </trkpt>
      <trkpt lat="43.48931" lon="3.74758">
        <ele>217.06</ele>
        <time>2021-01-14T09:16:47Z</time>
      </trkpt>
      <trkpt lat="43.48946" lon="3.74771">
        <ele>216.57</ele>
        <time>2021-01-14T09:17:01Z</time>
      </trkpt>
      <trkpt lat="43.4896" lon="3.74782">
        <ele>217.12</ele>
        <time>2021-01-14T09:17:20Z</time>
      </trkpt>
      <trkpt lat="43.48984" lon="3.74784">
        <ele>218.21</ele>
        <time>2021-01-14T09:17:42Z</time>
      </trkpt>
      <trkpt lat="43.49007" lon="3.74784">
        <ele>218.89</ele>
        <time>2021-01-14T09:18:03Z</time>
      </trkpt>
      <trkpt lat="43.49024" lon="3.74784">
        <ele>219.67</ele>
        <time>2021-01-14T09:18:16Z</time>
      </trkpt>
      <trkpt lat="43.49034" lon="3.74782">
        <ele>220.1</ele>
        <time>2021-01-14T09:18:23Z</time>
      </trkpt>
      <trkpt lat="43.4906" lon="3.7478">
        <ele>220.8</ele>
        <time>2021-01-14T09:18:47Z</time>
      </trkpt>
      <trkpt lat="43.49079" lon="3.7478">
        <ele>221.37</ele>
        <time>2021-01-14T09:19:04Z</time>
      </trkpt>
      <trkpt lat="43.49083" lon="3.74781">
        <ele>221.44</ele>
        <time>2021-01-14T09:19:07Z</time>
      </trkpt>
      <trkpt lat="43.491" lon="3.74785">
        <ele>221.83</ele>
        <time>2021-01-14T09:19:22Z</time>
      </trkpt>
      <trkpt lat="43.49119" lon="3.74793">
        <ele>222.22</ele>
        <time>2021-01-14T09:19:38Z</time>
      </trkpt>
      <trkpt lat="43.49129" lon="3.74799">
        <ele>222.01</ele>
        <time>2021-01-14T09:19:47Z</time>
      </trkpt>
      <trkpt lat="43.49143" lon="3.74809">
        <ele>221.65</ele>
        <time>2021-01-14T09:20:00Z</time>
      </trkpt>
      <trkpt lat="43.49161" lon="3.74818">
        <ele>222.12</ele>
        <time>2021-01-14T09:20:16Z</time>
      </trkpt>
      <trkpt lat="43.49181" lon="3.74827">
        <ele>222.43</ele>
        <time>2021-01-14T09:20:33Z</time>
      </trkpt>
      <trkpt lat="43.49191" lon="3.74831">
        <ele>222.63</ele>
        <time>2021-01-14T09:20:41Z</time>
      </trkpt>
      <trkpt lat="43.49207" lon="3.7484">
        <ele>221.5</ele>
        <time>2021-01-14T09:20:56Z</time>
      </trkpt>
      <trkpt lat="43.49223" lon="3.7485">
        <ele>221.73</ele>
        <time>2021-01-14T09:21:10Z</time>
      </trkpt>
      <trkpt lat="43.49238" lon="3.74859">
        <ele>221.78</ele>
        <time>2021-01-14T09:21:25Z</time>
      </trkpt>
      <trkpt lat="43.49252" lon="3.7487">
        <ele>220.86</ele>
        <time>2021-01-14T09:21:41Z</time>
      </trkpt>
      <trkpt lat="43.49255" lon="3.74872">
        <ele>220.72</ele>
        <time>2021-01-14T09:21:44Z</time>
      </trkpt>
      <trkpt lat="43.49258" lon="3.74875">
        <ele>220.53</ele>
        <time>2021-01-14T09:21:47Z</time>
      </trkpt>
      <trkpt lat="43.49263" lon="3.74879">
        <ele>220.58</ele>
        <time>2021-01-14T09:21:52Z</time>
      </trkpt>
      <trkpt lat="43.49272" lon="3.74885">
        <ele>220.81</ele>
        <time>2021-01-14T09:22:00Z</time>
      </trkpt>
      <trkpt lat="43.4928" lon="3.7489">
        <ele>221.32</ele>
        <time>2021-01-14T09:22:08Z</time>
      </trkpt>
      <trkpt lat="43.49296" lon="3.74903">
        <ele>221.67</ele>
        <time>2021-01-14T09:22:27Z</time>
      </trkpt>
      <trkpt lat="43.4932" lon="3.74923">
        <ele>222.35</ele>
        <time>2021-01-14T09:22:50Z</time>
      </trkpt>
      <trkpt lat="43.49338" lon="3.7494">
        <ele>222.75</ele>
        <time>2021-01-14T09:23:08Z</time>
      </trkpt>
      <trkpt lat="43.49348" lon="3.74953">
        <ele>223.01</ele>
        <time>2021-01-14T09:23:19Z</time>
      </trkpt>
      <trkpt lat="43.49369" lon="3.74976">
        <ele>223.17</ele>
        <time>2021-01-14T09:23:39Z</time>
      </trkpt>
      <trkpt lat="43.49381" lon="3.74991">
        <ele>222.72</ele>
        <time>2021-01-14T09:23:53Z</time>
      </trkpt>
      <trkpt lat="43.49401" lon="3.75007">
        <ele>222.22</ele>
        <time>2021-01-14T09:24:11Z</time>
      </trkpt>
      <trkpt lat="43.49413" lon="3.7503">
        <ele>221.69</ele>
        <time>2021-01-14T09:24:27Z</time>
      </trkpt>
      <trkpt lat="43.49415" lon="3.75032">
        <ele>221.69</ele>
        <time>2021-01-14T09:24:29Z</time>
      </trkpt>
      <trkpt lat="43.49427" lon="3.75052">
        <ele>222.24</ele>
        <time>2021-01-14T09:24:44Z</time>
      </trkpt>
      <trkpt lat="43.49439" lon="3.75073">
        <ele>222.42</ele>
        <time>2021-01-14T09:24:59Z</time>
      </trkpt>
      <trkpt lat="43.49451" lon="3.75092">
        <ele>222.68</ele>
        <time>2021-01-14T09:25:15Z</time>
      </trkpt>
      <trkpt lat="43.49463" lon="3.75106">
        <ele>222.07</ele>
        <time>2021-01-14T09:25:32Z</time>
      </trkpt>
      <trkpt lat="43.49477" lon="3.7513">
        <ele>222.44</ele>
        <time>2021-01-14T09:25:50Z</time>
      </trkpt>
      <trkpt lat="43.49484" lon="3.75135">
        <ele>222.53</ele>
        <time>2021-01-14T09:25:57Z</time>
      </trkpt>
      <trkpt lat="43.49505" lon="3.75144">
        <ele>222.26</ele>
        <time>2021-01-14T09:26:14Z</time>
      </trkpt>
      <trkpt lat="43.49513" lon="3.75145">
        <ele>222.21</ele>
        <time>2021-01-14T09:26:22Z</time>
      </trkpt>
      <trkpt lat="43.49528" lon="3.75147">
        <ele>221.73</ele>
        <time>2021-01-14T09:26:38Z</time>
      </trkpt>
      <trkpt lat="43.49543" lon="3.75143">
        <ele>222.05</ele>
        <time>2021-01-14T09:26:55Z</time>
      </trkpt>
      <trkpt lat="43.49552" lon="3.75141">
        <ele>222.06</ele>
        <time>2021-01-14T09:27:03Z</time>
      </trkpt>
      <trkpt lat="43.49567" lon="3.75139">
        <ele>222.07</ele>
        <time>2021-01-14T09:27:18Z</time>
      </trkpt>
      <trkpt lat="43.49582" lon="3.75137">
        <ele>221.89</ele>
        <time>2021-01-14T09:27:34Z</time>
      </trkpt>
      <trkpt lat="43.49597" lon="3.75135">
        <ele>221.65</ele>
        <time>2021-01-14T09:27:47Z</time>
      </trkpt>
      <trkpt lat="43.49615" lon="3.75137">
        <ele>223.05</ele>
        <time>2021-01-14T09:28:02Z</time>
      </trkpt>
      <trkpt lat="43.49629" lon="3.75139">
        <ele>221.82</ele>
        <time>2021-01-14T09:28:17Z</time>
      </trkpt>
      <trkpt lat="43.49634" lon="3.75138">
        <ele>222.11</ele>
        <time>2021-01-14T09:28:32Z</time>
      </trkpt>
      <trkpt lat="43.49644" lon="3.75138">
        <ele>222.52</ele>
        <time>2021-01-14T09:28:42Z</time>
      </trkpt>
      <trkpt lat="43.49647" lon="3.75139">
        <ele>222.9</ele>
        <time>2021-01-14T09:28:45Z</time>
      </trkpt>
      <trkpt lat="43.49667" lon="3.75143">
        <ele>221.23</ele>
        <time>2021-01-14T09:29:02Z</time>
      </trkpt>
      <trkpt lat="43.4968" lon="3.75145">
        <ele>221.94</ele>
        <time>2021-01-14T09:29:15Z</time>
      </trkpt>
      <trkpt lat="43.49703" lon="3.75155">
        <ele>223.43</ele>
        <time>2021-01-14T09:29:35Z</time>
      </trkpt>
      <trkpt lat="43.4972" lon="3.75164">
        <ele>223.05</ele>
        <time>2021-01-14T09:29:51Z</time>
      </trkpt>
      <trkpt lat="43.49724" lon="3.75167">
        <ele>223.74</ele>
        <time>2021-01-14T09:29:56Z</time>
      </trkpt>
      <trkpt lat="43.49732" lon="3.75172">
        <ele>223.15</ele>
        <time>2021-01-14T09:30:04Z</time>
      </trkpt>
      <trkpt lat="43.49749" lon="3.75178">
        <ele>223.09</ele>
        <time>2021-01-14T09:30:23Z</time>
      </trkpt>
      <trkpt lat="43.4975" lon="3.75182">
        <ele>221.79</ele>
        <time>2021-01-14T09:30:49Z</time>
      </trkpt>
      <trkpt lat="43.49751" lon="3.75186">
        <ele>221.16</ele>
        <time>2021-01-14T09:31:07Z</time>
      </trkpt>
      <trkpt lat="43.49749" lon="3.75179">
        <ele>224.2</ele>
        <time>2021-01-14T09:31:27Z</time>
      </trkpt>
      <trkpt lat="43.49747" lon="3.75182">
        <ele>221.5</ele>
        <time>2021-01-14T09:31:57Z</time>
      </trkpt>
      <trkpt lat="43.49747" lon="3.75185">
        <ele>222.62</ele>
        <time>2021-01-14T09:32:19Z</time>
      </trkpt>
      <trkpt lat="43.49748" lon="3.75181">
        <ele>223.61</ele>
        <time>2021-01-14T09:32:48Z</time>
      </trkpt>
      <trkpt lat="43.49764" lon="3.75181">
        <ele>223.38</ele>
        <time>2021-01-14T09:33:05Z</time>
      </trkpt>
      <trkpt lat="43.49789" lon="3.75191">
        <ele>223.82</ele>
        <time>2021-01-14T09:33:29Z</time>
      </trkpt>
      <trkpt lat="43.49802" lon="3.75198">
        <ele>222.27</ele>
        <time>2021-01-14T09:33:43Z</time>
      </trkpt>
      <trkpt lat="43.49805" lon="3.75199">
        <ele>222.58</ele>
        <time>2021-01-14T09:33:45Z</time>
      </trkpt>
      <trkpt lat="43.4982" lon="3.75209">
        <ele>222.45</ele>
        <time>2021-01-14T09:34:00Z</time>
      </trkpt>
      <trkpt lat="43.4983" lon="3.75213">
        <ele>222.97</ele>
        <time>2021-01-14T09:34:08Z</time>
      </trkpt>
      <trkpt lat="43.49836" lon="3.75215">
        <ele>223.45</ele>
        <time>2021-01-14T09:34:14Z</time>
      </trkpt>
      <trkpt lat="43.49843" lon="3.75219">
        <ele>223.27</ele>
        <time>2021-01-14T09:34:21Z</time>
      </trkpt>
      <trkpt lat="43.4986" lon="3.75226">
        <ele>221.56</ele>
        <time>2021-01-14T09:34:36Z</time>
      </trkpt>
      <trkpt lat="43.49866" lon="3.75229">
        <ele>221.78</ele>
        <time>2021-01-14T09:34:43Z</time>
      </trkpt>
      <trkpt lat="43.49869" lon="3.75232">
        <ele>222.26</ele>
        <time>2021-01-14T09:34:46Z</time>
      </trkpt>
      <trkpt lat="43.49884" lon="3.7524">
        <ele>223.38</ele>
        <time>2021-01-14T09:34:59Z</time>
      </trkpt>
      <trkpt lat="43.49889" lon="3.75241">
        <ele>223.46</ele>
        <time>2021-01-14T09:35:04Z</time>
      </trkpt>
      <trkpt lat="43.49901" lon="3.75245">
        <ele>224.62</ele>
        <time>2021-01-14T09:35:16Z</time>
      </trkpt>
      <trkpt lat="43.49915" lon="3.75245">
        <ele>226.8</ele>
        <time>2021-01-14T09:35:31Z</time>
      </trkpt>
      <trkpt lat="43.4993" lon="3.75251">
        <ele>228.73</ele>
        <time>2021-01-14T09:35:45Z</time>
      </trkpt>
      <trkpt lat="43.49947" lon="3.75254">
        <ele>230.35</ele>
        <time>2021-01-14T09:36:01Z</time>
      </trkpt>
      <trkpt lat="43.49953" lon="3.75256">
        <ele>230.26</ele>
        <time>2021-01-14T09:36:11Z</time>
      </trkpt>
      <trkpt lat="43.49957" lon="3.75256">
        <ele>230.26</ele>
        <time>2021-01-14T09:36:14Z</time>
      </trkpt>
      <trkpt lat="43.49972" lon="3.75254">
        <ele>232.65</ele>
        <time>2021-01-14T09:36:31Z</time>
      </trkpt>
      <trkpt lat="43.49977" lon="3.75253">
        <ele>236.22</ele>
        <time>2021-01-14T09:36:36Z</time>
      </trkpt>
      <trkpt lat="43.49979" lon="3.75253">
        <ele>237.06</ele>
        <time>2021-01-14T09:36:38Z</time>
      </trkpt>
      <trkpt lat="43.49984" lon="3.75255">
        <ele>237.52</ele>
        <time>2021-01-14T09:36:50Z</time>
      </trkpt>
      <trkpt lat="43.49982" lon="3.75261">
        <ele>237.3</ele>
        <time>2021-01-14T09:37:15Z</time>
      </trkpt>
      <trkpt lat="43.49981" lon="3.7526">
        <ele>235.94</ele>
        <time>2021-01-14T09:37:43Z</time>
      </trkpt>
      <trkpt lat="43.4998" lon="3.75258">
        <ele>232.73</ele>
        <time>2021-01-14T09:38:05Z</time>
      </trkpt>
      <trkpt lat="43.49982" lon="3.75261">
        <ele>231.55</ele>
        <time>2021-01-14T09:38:26Z</time>
      </trkpt>
      <trkpt lat="43.49982" lon="3.75262">
        <ele>234.77</ele>
        <time>2021-01-14T09:38:38Z</time>
      </trkpt>
      <trkpt lat="43.49982" lon="3.75258">
        <ele>236.05</ele>
        <time>2021-01-14T09:39:00Z</time>
      </trkpt>
      <trkpt lat="43.49978" lon="3.75257">
        <ele>235.99</ele>
        <time>2021-01-14T09:39:07Z</time>
      </trkpt>
      <trkpt lat="43.49973" lon="3.75258">
        <ele>235.4</ele>
        <time>2021-01-14T09:39:11Z</time>
      </trkpt>
      <trkpt lat="43.49967" lon="3.75264">
        <ele>231.63</ele>
        <time>2021-01-14T09:39:19Z</time>
      </trkpt>
      <trkpt lat="43.49964" lon="3.75268">
        <ele>228.43</ele>
        <time>2021-01-14T09:39:27Z</time>
      </trkpt>
      <trkpt lat="43.49958" lon="3.75276">
        <ele>226.45</ele>
        <time>2021-01-14T09:39:46Z</time>
      </trkpt>
      <trkpt lat="43.49956" lon="3.75279">
        <ele>226.66</ele>
        <time>2021-01-14T09:40:06Z</time>
      </trkpt>
      <trkpt lat="43.49956" lon="3.7528">
        <ele>226.23</ele>
        <time>2021-01-14T09:40:27Z</time>
      </trkpt>
      <trkpt lat="43.49957" lon="3.75278">
        <ele>224.86</ele>
        <time>2021-01-14T09:41:08Z</time>
      </trkpt>
      <trkpt lat="43.49956" lon="3.75279">
        <ele>224.6</ele>
        <time>2021-01-14T09:41:55Z</time>
      </trkpt>
      <trkpt lat="43.49956" lon="3.75279">
        <ele>224.43</ele>
        <time>2021-01-14T09:42:26Z</time>
      </trkpt>
      <trkpt lat="43.49956" lon="3.75278">
        <ele>225.96</ele>
        <time>2021-01-14T09:43:06Z</time>
      </trkpt>
      <trkpt lat="43.49957" lon="3.75279">
        <ele>225.83</ele>
        <time>2021-01-14T09:43:46Z</time>
      </trkpt>
      <trkpt lat="43.49957" lon="3.75279">
        <ele>224.75</ele>
        <time>2021-01-14T09:44:30Z</time>
      </trkpt>
      <trkpt lat="43.49956" lon="3.75281">
        <ele>227.35</ele>
        <time>2021-01-14T09:45:12Z</time>
      </trkpt>
      <trkpt lat="43.49957" lon="3.75278">
        <ele>225.65</ele>
        <time>2021-01-14T09:45:41Z</time>
      </trkpt>
      <trkpt lat="43.49956" lon="3.75279">
        <ele>226.59</ele>
        <time>2021-01-14T09:46:02Z</time>
      </trkpt>
      <trkpt lat="43.49956" lon="3.7528">
        <ele>228.8</ele>
        <time>2021-01-14T09:46:31Z</time>
      </trkpt>
      <trkpt lat="43.49957" lon="3.75283">
        <ele>226.25</ele>
        <time>2021-01-14T09:46:55Z</time>
      </trkpt>
      <trkpt lat="43.49956" lon="3.75284">
        <ele>226.89</ele>
        <time>2021-01-14T09:47:27Z</time>
      </trkpt>
      <trkpt lat="43.49956" lon="3.75284">
        <ele>226.46</ele>
        <time>2021-01-14T09:47:55Z</time>
      </trkpt>
      <trkpt lat="43.49956" lon="3.75284">
        <ele>225.97</ele>
        <time>2021-01-14T09:48:27Z</time>
      </trkpt>
      <trkpt lat="43.49956" lon="3.75283">
        <ele>226.24</ele>
        <time>2021-01-14T09:48:56Z</time>
      </trkpt>
      <trkpt lat="43.49948" lon="3.75277">
        <ele>225.7</ele>
        <time>2021-01-14T09:49:18Z</time>
      </trkpt>
      <trkpt lat="43.4993" lon="3.75275">
        <ele>225.08</ele>
        <time>2021-01-14T09:49:36Z</time>
      </trkpt>
      <trkpt lat="43.49909" lon="3.75269">
        <ele>224.59</ele>
        <time>2021-01-14T09:49:56Z</time>
      </trkpt>
      <trkpt lat="43.49904" lon="3.75267">
        <ele>224.32</ele>
        <time>2021-01-14T09:50:01Z</time>
      </trkpt>
      <trkpt lat="43.49883" lon="3.75254">
        <ele>222.4</ele>
        <time>2021-01-14T09:50:20Z</time>
      </trkpt>
      <trkpt lat="43.49866" lon="3.75237">
        <ele>221.45</ele>
        <time>2021-01-14T09:50:37Z</time>
      </trkpt>
      <trkpt lat="43.4986" lon="3.75231">
        <ele>221.61</ele>
        <time>2021-01-14T09:50:44Z</time>
      </trkpt>
      <trkpt lat="43.49859" lon="3.75229">
        <ele>221.65</ele>
        <time>2021-01-14T09:50:46Z</time>
      </trkpt>
      <trkpt lat="43.49853" lon="3.75225">
        <ele>220.78</ele>
        <time>2021-01-14T09:50:55Z</time>
      </trkpt>
      <trkpt lat="43.49829" lon="3.75214">
        <ele>219.35</ele>
        <time>2021-01-14T09:51:17Z</time>
      </trkpt>
      <trkpt lat="43.49807" lon="3.75203">
        <ele>219.12</ele>
        <time>2021-01-14T09:51:38Z</time>
      </trkpt>
      <trkpt lat="43.4979" lon="3.75196">
        <ele>219.71</ele>
        <time>2021-01-14T09:51:54Z</time>
      </trkpt>
      <trkpt lat="43.49787" lon="3.75194">
        <ele>219.57</ele>
        <time>2021-01-14T09:51:57Z</time>
      </trkpt>
      <trkpt lat="43.49767" lon="3.75188">
        <ele>220.38</ele>
        <time>2021-01-14T09:52:14Z</time>
      </trkpt>
      <trkpt lat="43.49748" lon="3.75178">
        <ele>220.05</ele>
        <time>2021-01-14T09:52:31Z</time>
      </trkpt>
      <trkpt lat="43.49726" lon="3.7517">
        <ele>220.12</ele>
        <time>2021-01-14T09:52:51Z</time>
      </trkpt>
      <trkpt lat="43.49708" lon="3.75164">
        <ele>220.85</ele>
        <time>2021-01-14T09:53:07Z</time>
      </trkpt>
      <trkpt lat="43.49693" lon="3.75156">
        <ele>221.59</ele>
        <time>2021-01-14T09:53:21Z</time>
      </trkpt>
      <trkpt lat="43.49682" lon="3.75152">
        <ele>221.27</ele>
        <time>2021-01-14T09:53:31Z</time>
      </trkpt>
      <trkpt lat="43.49679" lon="3.75147">
        <ele>220.43</ele>
        <time>2021-01-14T09:53:38Z</time>
      </trkpt>
      <trkpt lat="43.49677" lon="3.75146">
        <ele>220.62</ele>
        <time>2021-01-14T09:53:41Z</time>
      </trkpt>
      <trkpt lat="43.49658" lon="3.75144">
        <ele>221.45</ele>
        <time>2021-01-14T09:53:57Z</time>
      </trkpt>
      <trkpt lat="43.49648" lon="3.75144">
        <ele>221.1</ele>
        <time>2021-01-14T09:54:05Z</time>
      </trkpt>
      <trkpt lat="43.49623" lon="3.75139">
        <ele>221.07</ele>
        <time>2021-01-14T09:54:26Z</time>
      </trkpt>
      <trkpt lat="43.49601" lon="3.7514">
        <ele>222.17</ele>
        <time>2021-01-14T09:54:46Z</time>
      </trkpt>
      <trkpt lat="43.49581" lon="3.75141">
        <ele>222.22</ele>
        <time>2021-01-14T09:55:03Z</time>
      </trkpt>
      <trkpt lat="43.49563" lon="3.75142">
        <ele>222.8</ele>
        <time>2021-01-14T09:55:18Z</time>
      </trkpt>
      <trkpt lat="43.49539" lon="3.75145">
        <ele>222.23</ele>
        <time>2021-01-14T09:55:40Z</time>
      </trkpt>
      <trkpt lat="43.49527" lon="3.75156">
        <ele>221.1</ele>
        <time>2021-01-14T09:55:52Z</time>
      </trkpt>
      <trkpt lat="43.49525" lon="3.75178">
        <ele>219.08</ele>
        <time>2021-01-14T09:56:11Z</time>
      </trkpt>
      <trkpt lat="43.49525" lon="3.75187">
        <ele>218.4</ele>
        <time>2021-01-14T09:56:22Z</time>
      </trkpt>
      <trkpt lat="43.49521" lon="3.75193">
        <ele>218.01</ele>
        <time>2021-01-14T09:56:27Z</time>
      </trkpt>
      <trkpt lat="43.49516" lon="3.75203">
        <ele>217.47</ele>
        <time>2021-01-14T09:56:39Z</time>
      </trkpt>
      <trkpt lat="43.49512" lon="3.75223">
        <ele>215.46</ele>
        <time>2021-01-14T09:56:55Z</time>
      </trkpt>
      <trkpt lat="43.49511" lon="3.75226">
        <ele>215.15</ele>
        <time>2021-01-14T09:56:57Z</time>
      </trkpt>
      <trkpt lat="43.49497" lon="3.75244">
        <ele>213.99</ele>
        <time>2021-01-14T09:57:14Z</time>
      </trkpt>
      <trkpt lat="43.49476" lon="3.75262">
        <ele>213.16</ele>
        <time>2021-01-14T09:57:34Z</time>
      </trkpt>
      <trkpt lat="43.49472" lon="3.75264">
        <ele>213.09</ele>
        <time>2021-01-14T09:57:37Z</time>
      </trkpt>
      <trkpt lat="43.49469" lon="3.75268">
        <ele>213.07</ele>
        <time>2021-01-14T09:57:41Z</time>
      </trkpt>
      <trkpt lat="43.4945" lon="3.75286">
        <ele>212.21</ele>
        <time>2021-01-14T09:58:00Z</time>
      </trkpt>
      <trkpt lat="43.49443" lon="3.75292">
        <ele>211.78</ele>
        <time>2021-01-14T09:58:07Z</time>
      </trkpt>
      <trkpt lat="43.49435" lon="3.75301">
        <ele>211.1</ele>
        <time>2021-01-14T09:58:16Z</time>
      </trkpt>
      <trkpt lat="43.49431" lon="3.75306">
        <ele>210.72</ele>
        <time>2021-01-14T09:58:21Z</time>
      </trkpt>
      <trkpt lat="43.49414" lon="3.75315">
        <ele>210.21</ele>
        <time>2021-01-14T09:58:37Z</time>
      </trkpt>
      <trkpt lat="43.49401" lon="3.75323">
        <ele>209.56</ele>
        <time>2021-01-14T09:58:51Z</time>
      </trkpt>
      <trkpt lat="43.49397" lon="3.75327">
        <ele>209.12</ele>
        <time>2021-01-14T09:58:55Z</time>
      </trkpt>
      <trkpt lat="43.49381" lon="3.75341">
        <ele>208.46</ele>
        <time>2021-01-14T09:59:10Z</time>
      </trkpt>
      <trkpt lat="43.49375" lon="3.75349">
        <ele>208.13</ele>
        <time>2021-01-14T09:59:18Z</time>
      </trkpt>
      <trkpt lat="43.49372" lon="3.75351">
        <ele>207.92</ele>
        <time>2021-01-14T09:59:21Z</time>
      </trkpt>
      <trkpt lat="43.4936" lon="3.75349">
        <ele>207.59</ele>
        <time>2021-01-14T09:59:37Z</time>
      </trkpt>
      <trkpt lat="43.49355" lon="3.75356">
        <ele>206.87</ele>
        <time>2021-01-14T09:59:52Z</time>
      </trkpt>
      <trkpt lat="43.49358" lon="3.75352">
        <ele>207.16</ele>
        <time>2021-01-14T10:00:14Z</time>
      </trkpt>
      <trkpt lat="43.49369" lon="3.75353">
        <ele>208.01</ele>
        <time>2021-01-14T10:00:32Z</time>
      </trkpt>
      <trkpt lat="43.49371" lon="3.75356">
        <ele>207.6</ele>
        <time>2021-01-14T10:00:51Z</time>
      </trkpt>
      <trkpt lat="43.49369" lon="3.75356">
        <ele>208.54</ele>
        <time>2021-01-14T10:01:18Z</time>
      </trkpt>
      <trkpt lat="43.4937" lon="3.75355">
        <ele>207.71</ele>
        <time>2021-01-14T10:01:39Z</time>
      </trkpt>
      <trkpt lat="43.49367" lon="3.75366">
        <ele>207.25</ele>
        <time>2021-01-14T10:01:52Z</time>
      </trkpt>
      <trkpt lat="43.49366" lon="3.7537">
        <ele>207.64</ele>
        <time>2021-01-14T10:01:55Z</time>
      </trkpt>
      <trkpt lat="43.49357" lon="3.75395">
        <ele>208.23</ele>
        <time>2021-01-14T10:02:16Z</time>
      </trkpt>
      <trkpt lat="43.49353" lon="3.754">
        <ele>208.74</ele>
        <time>2021-01-14T10:02:34Z</time>
      </trkpt>
      <trkpt lat="43.49352" lon="3.75401">
        <ele>208.58</ele>
        <time>2021-01-14T10:03:04Z</time>
      </trkpt>
      <trkpt lat="43.49352" lon="3.754">
        <ele>208.83</ele>
        <time>2021-01-14T10:03:42Z</time>
      </trkpt>
      <trkpt lat="43.49351" lon="3.75404">
        <ele>209.48</ele>
        <time>2021-01-14T10:04:15Z</time>
      </trkpt>
      <trkpt lat="43.49352" lon="3.75417">
        <ele>209.77</ele>
        <time>2021-01-14T10:04:36Z</time>
      </trkpt>
      <trkpt lat="43.49351" lon="3.75428">
        <ele>210.5</ele>
        <time>2021-01-14T10:04:45Z</time>
      </trkpt>
      <trkpt lat="43.49352" lon="3.7545">
        <ele>211.99</ele>
        <time>2021-01-14T10:05:02Z</time>
      </trkpt>
      <trkpt lat="43.49359" lon="3.75475">
        <ele>212.76</ele>
        <time>2021-01-14T10:05:20Z</time>
      </trkpt>
      <trkpt lat="43.49365" lon="3.75501">
        <ele>213.46</ele>
        <time>2021-01-14T10:05:36Z</time>
      </trkpt>
      <trkpt lat="43.49372" lon="3.7553">
        <ele>213.21</ele>
        <time>2021-01-14T10:05:54Z</time>
      </trkpt>
      <trkpt lat="43.49379" lon="3.75559">
        <ele>214.37</ele>
        <time>2021-01-14T10:06:10Z</time>
      </trkpt>
      <trkpt lat="43.49382" lon="3.7557">
        <ele>214.12</ele>
        <time>2021-01-14T10:06:17Z</time>
      </trkpt>
      <trkpt lat="43.49386" lon="3.75596">
        <ele>214.94</ele>
        <time>2021-01-14T10:06:34Z</time>
      </trkpt>
      <trkpt lat="43.4939" lon="3.75623">
        <ele>215.31</ele>
        <time>2021-01-14T10:06:50Z</time>
      </trkpt>
      <trkpt lat="43.49392" lon="3.75653">
        <ele>216.41</ele>
        <time>2021-01-14T10:07:08Z</time>
      </trkpt>
      <trkpt lat="43.49392" lon="3.75679">
        <ele>217.43</ele>
        <time>2021-01-14T10:07:26Z</time>
      </trkpt>
      <trkpt lat="43.49391" lon="3.7569">
        <ele>217.8</ele>
        <time>2021-01-14T10:07:33Z</time>
      </trkpt>
      <trkpt lat="43.4939" lon="3.75705">
        <ele>218.31</ele>
        <time>2021-01-14T10:07:41Z</time>
      </trkpt>
      <trkpt lat="43.49387" lon="3.75732">
        <ele>218.8</ele>
        <time>2021-01-14T10:07:57Z</time>
      </trkpt>
      <trkpt lat="43.49386" lon="3.75749">
        <ele>218.97</ele>
        <time>2021-01-14T10:08:08Z</time>
      </trkpt>
      <trkpt lat="43.49385" lon="3.75783">
        <ele>219.13</ele>
        <time>2021-01-14T10:08:27Z</time>
      </trkpt>
      <trkpt lat="43.49385" lon="3.7581">
        <ele>218.8</ele>
        <time>2021-01-14T10:08:42Z</time>
      </trkpt>
      <trkpt lat="43.49386" lon="3.7584">
        <ele>218.6</ele>
        <time>2021-01-14T10:08:58Z</time>
      </trkpt>
      <trkpt lat="43.49384" lon="3.75853">
        <ele>218.98</ele>
        <time>2021-01-14T10:09:07Z</time>
      </trkpt>
      <trkpt lat="43.49383" lon="3.75855">
        <ele>219.01</ele>
        <time>2021-01-14T10:09:09Z</time>
      </trkpt>
      <trkpt lat="43.49371" lon="3.75871">
        <ele>219.21</ele>
        <time>2021-01-14T10:09:24Z</time>
      </trkpt>
      <trkpt lat="43.49359" lon="3.7588">
        <ele>218.67</ele>
        <time>2021-01-14T10:09:38Z</time>
      </trkpt>
      <trkpt lat="43.49339" lon="3.75889">
        <ele>218.53</ele>
        <time>2021-01-14T10:09:55Z</time>
      </trkpt>
      <trkpt lat="43.49319" lon="3.75883">
        <ele>217.69</ele>
        <time>2021-01-14T10:10:13Z</time>
      </trkpt>
      <trkpt lat="43.49298" lon="3.75875">
        <ele>217.3</ele>
        <time>2021-01-14T10:10:32Z</time>
      </trkpt>
      <trkpt lat="43.49283" lon="3.75866">
        <ele>216.85</ele>
        <time>2021-01-14T10:10:47Z</time>
      </trkpt>
      <trkpt lat="43.49271" lon="3.75858">
        <ele>216.41</ele>
        <time>2021-01-14T10:11:02Z</time>
      </trkpt>
      <trkpt lat="43.49256" lon="3.75846">
        <ele>216.59</ele>
        <time>2021-01-14T10:11:19Z</time>
      </trkpt>
      <trkpt lat="43.4924" lon="3.7583">
        <ele>216.51</ele>
        <time>2021-01-14T10:11:40Z</time>
      </trkpt>
      <trkpt lat="43.49221" lon="3.75814">
        <ele>216.24</ele>
        <time>2021-01-14T10:11:58Z</time>
      </trkpt>
      <trkpt lat="43.49217" lon="3.75812">
        <ele>215.98</ele>
        <time>2021-01-14T10:12:02Z</time>
      </trkpt>
      <trkpt lat="43.49213" lon="3.75811">
        <ele>215.8</ele>
        <time>2021-01-14T10:12:06Z</time>
      </trkpt>
      <trkpt lat="43.49193" lon="3.75806">
        <ele>215.21</ele>
        <time>2021-01-14T10:12:25Z</time>
      </trkpt>
      <trkpt lat="43.49173" lon="3.75809">
        <ele>215.35</ele>
        <time>2021-01-14T10:12:43Z</time>
      </trkpt>
      <trkpt lat="43.49164" lon="3.75813">
        <ele>215.4</ele>
        <time>2021-01-14T10:12:52Z</time>
      </trkpt>
      <trkpt lat="43.49162" lon="3.75814">
        <ele>215.43</ele>
        <time>2021-01-14T10:12:54Z</time>
      </trkpt>
      <trkpt lat="43.49137" lon="3.75828">
        <ele>215.11</ele>
        <time>2021-01-14T10:13:14Z</time>
      </trkpt>
      <trkpt lat="43.49119" lon="3.75842">
        <ele>214.93</ele>
        <time>2021-01-14T10:13:31Z</time>
      </trkpt>
      <trkpt lat="43.49116" lon="3.7585">
        <ele>214.54</ele>
        <time>2021-01-14T10:13:37Z</time>
      </trkpt>
      <trkpt lat="43.49107" lon="3.75875">
        <ele>215.07</ele>
        <time>2021-01-14T10:13:55Z</time>
      </trkpt>
      <trkpt lat="43.4909" lon="3.75883">
        <ele>214.82</ele>
        <time>2021-01-14T10:14:13Z</time>
      </trkpt>
      <trkpt lat="43.49073" lon="3.75882">
        <ele>214.47</ele>
        <time>2021-01-14T10:14:29Z</time>
      </trkpt>
      <trkpt lat="43.49056" lon="3.75864">
        <ele>214.41</ele>
        <time>2021-01-14T10:14:50Z</time>
      </trkpt>
      <trkpt lat="43.49049" lon="3.75851">
        <ele>214.54</ele>
        <time>2021-01-14T10:15:06Z</time>
      </trkpt>
      <trkpt lat="43.49045" lon="3.75846">
        <ele>215.52</ele>
        <time>2021-01-14T10:15:16Z</time>
      </trkpt>
      <trkpt lat="43.4904" lon="3.75835">
        <ele>215.23</ele>
        <time>2021-01-14T10:15:29Z</time>
      </trkpt>
      <trkpt lat="43.49032" lon="3.7581">
        <ele>213.87</ele>
        <time>2021-01-14T10:15:46Z</time>
      </trkpt>
      <trkpt lat="43.49024" lon="3.7579">
        <ele>213.99</ele>
        <time>2021-01-14T10:16:06Z</time>
      </trkpt>
      <trkpt lat="43.49018" lon="3.75775">
        <ele>214.3</ele>
        <time>2021-01-14T10:16:27Z</time>
      </trkpt>
      <trkpt lat="43.49017" lon="3.75768">
        <ele>214.41</ele>
        <time>2021-01-14T10:16:40Z</time>
      </trkpt>
      <trkpt lat="43.49017" lon="3.75766">
        <ele>214.52</ele>
        <time>2021-01-14T10:16:42Z</time>
      </trkpt>
      <trkpt lat="43.49007" lon="3.75738">
        <ele>214.56</ele>
        <time>2021-01-14T10:17:03Z</time>
      </trkpt>
      <trkpt lat="43.48994" lon="3.75715">
        <ele>214.49</ele>
        <time>2021-01-14T10:17:22Z</time>
      </trkpt>
      <trkpt lat="43.48981" lon="3.7569">
        <ele>214.29</ele>
        <time>2021-01-14T10:17:41Z</time>
      </trkpt>
      <trkpt lat="43.48974" lon="3.75679">
        <ele>214.12</ele>
        <time>2021-01-14T10:17:59Z</time>
      </trkpt>
      <trkpt lat="43.48971" lon="3.75675">
        <ele>213.72</ele>
        <time>2021-01-14T10:18:21Z</time>
      </trkpt>
      <trkpt lat="43.48967" lon="3.7567">
        <ele>213.18</ele>
        <time>2021-01-14T10:18:42Z</time>
      </trkpt>
      <trkpt lat="43.48955" lon="3.75654">
        <ele>213.56</ele>
        <time>2021-01-14T10:18:59Z</time>
      </trkpt>
      <trkpt lat="43.48953" lon="3.7565">
        <ele>213.52</ele>
        <time>2021-01-14T10:19:08Z</time>
      </trkpt>
      <trkpt lat="43.48946" lon="3.75644">
        <ele>213.25</ele>
        <time>2021-01-14T10:19:15Z</time>
      </trkpt>
      <trkpt lat="43.48934" lon="3.75635">
        <ele>213.38</ele>
        <time>2021-01-14T10:19:25Z</time>
      </trkpt>
      <trkpt lat="43.48912" lon="3.75623">
        <ele>212.62</ele>
        <time>2021-01-14T10:19:45Z</time>
      </trkpt>
      <trkpt lat="43.4889" lon="3.75616">
        <ele>211.68</ele>
        <time>2021-01-14T10:20:03Z</time>
      </trkpt>
      <trkpt lat="43.48866" lon="3.75615">
        <ele>211.5</ele>
        <time>2021-01-14T10:20:19Z</time>
      </trkpt>
      <trkpt lat="43.48847" lon="3.75615">
        <ele>210.74</ele>
        <time>2021-01-14T10:20:34Z</time>
      </trkpt>
      <trkpt lat="43.48832" lon="3.75616">
        <ele>210.22</ele>
        <time>2021-01-14T10:20:48Z</time>
      </trkpt>
      <trkpt lat="43.48812" lon="3.75616">
        <ele>209.81</ele>
        <time>2021-01-14T10:21:02Z</time>
      </trkpt>
      <trkpt lat="43.48802" lon="3.75618">
        <ele>209.33</ele>
        <time>2021-01-14T10:21:11Z</time>
      </trkpt>
      <trkpt lat="43.48784" lon="3.75633">
        <ele>207.96</ele>
        <time>2021-01-14T10:21:28Z</time>
      </trkpt>
      <trkpt lat="43.48778" lon="3.75643">
        <ele>207.42</ele>
        <time>2021-01-14T10:21:40Z</time>
      </trkpt>
      <trkpt lat="43.48776" lon="3.75646">
        <ele>207.53</ele>
        <time>2021-01-14T10:21:43Z</time>
      </trkpt>
      <trkpt lat="43.4876" lon="3.75669">
        <ele>206.54</ele>
        <time>2021-01-14T10:22:03Z</time>
      </trkpt>
      <trkpt lat="43.48758" lon="3.75672">
        <ele>206.35</ele>
        <time>2021-01-14T10:22:09Z</time>
      </trkpt>
      <trkpt lat="43.48744" lon="3.75681">
        <ele>205.91</ele>
        <time>2021-01-14T10:22:27Z</time>
      </trkpt>
      <trkpt lat="43.48733" lon="3.75685">
        <ele>204.93</ele>
        <time>2021-01-14T10:22:44Z</time>
      </trkpt>
      <trkpt lat="43.48727" lon="3.75683">
        <ele>205.59</ele>
        <time>2021-01-14T10:23:03Z</time>
      </trkpt>
      <trkpt lat="43.4872" lon="3.75681">
        <ele>205.21</ele>
        <time>2021-01-14T10:23:24Z</time>
      </trkpt>
      <trkpt lat="43.48722" lon="3.75682">
        <ele>204.74</ele>
        <time>2021-01-14T10:23:47Z</time>
      </trkpt>
      <trkpt lat="43.48724" lon="3.75688">
        <ele>205.02</ele>
        <time>2021-01-14T10:24:10Z</time>
      </trkpt>
      <trkpt lat="43.48725" lon="3.75688">
        <ele>205.8</ele>
        <time>2021-01-14T10:24:34Z</time>
      </trkpt>
      <trkpt lat="43.48724" lon="3.75687">
        <ele>205.48</ele>
        <time>2021-01-14T10:25:00Z</time>
      </trkpt>
      <trkpt lat="43.48723" lon="3.75683">
        <ele>205.21</ele>
        <time>2021-01-14T10:25:25Z</time>
      </trkpt>
      <trkpt lat="43.48723" lon="3.75684">
        <ele>205.19</ele>
        <time>2021-01-14T10:25:46Z</time>
      </trkpt>
      <trkpt lat="43.48721" lon="3.75681">
        <ele>205.06</ele>
        <time>2021-01-14T10:26:13Z</time>
      </trkpt>
      <trkpt lat="43.48721" lon="3.75684">
        <ele>205.16</ele>
        <time>2021-01-14T10:26:39Z</time>
      </trkpt>
      <trkpt lat="43.48722" lon="3.75686">
        <ele>205.2</ele>
        <time>2021-01-14T10:27:09Z</time>
      </trkpt>
      <trkpt lat="43.4872" lon="3.75683">
        <ele>204.87</ele>
        <time>2021-01-14T10:27:38Z</time>
      </trkpt>
      <trkpt lat="43.48712" lon="3.75679">
        <ele>204.77</ele>
        <time>2021-01-14T10:27:54Z</time>
      </trkpt>
      <trkpt lat="43.48695" lon="3.75673">
        <ele>204.51</ele>
        <time>2021-01-14T10:28:09Z</time>
      </trkpt>
      <trkpt lat="43.48687" lon="3.75668">
        <ele>204.65</ele>
        <time>2021-01-14T10:28:17Z</time>
      </trkpt>
      <trkpt lat="43.48681" lon="3.75662">
        <ele>204.21</ele>
        <time>2021-01-14T10:28:24Z</time>
      </trkpt>
      <trkpt lat="43.48669" lon="3.75643">
        <ele>203.73</ele>
        <time>2021-01-14T10:28:41Z</time>
      </trkpt>
      <trkpt lat="43.48666" lon="3.75636">
        <ele>203.72</ele>
        <time>2021-01-14T10:28:46Z</time>
      </trkpt>
      <trkpt lat="43.48665" lon="3.75633">
        <ele>203.71</ele>
        <time>2021-01-14T10:28:48Z</time>
      </trkpt>
      <trkpt lat="43.48663" lon="3.75624">
        <ele>203.44</ele>
        <time>2021-01-14T10:28:53Z</time>
      </trkpt>
      <trkpt lat="43.48661" lon="3.75615">
        <ele>203.11</ele>
        <time>2021-01-14T10:28:59Z</time>
      </trkpt>
      <trkpt lat="43.4867" lon="3.75592">
        <ele>203.09</ele>
        <time>2021-01-14T10:29:16Z</time>
      </trkpt>
      <trkpt lat="43.48672" lon="3.75581">
        <ele>203.35</ele>
        <time>2021-01-14T10:29:28Z</time>
      </trkpt>
      <trkpt lat="43.48674" lon="3.75574">
        <ele>203.48</ele>
        <time>2021-01-14T10:29:34Z</time>
      </trkpt>
      <trkpt lat="43.48677" lon="3.7555">
        <ele>202.72</ele>
        <time>2021-01-14T10:29:51Z</time>
      </trkpt>
      <trkpt lat="43.48676" lon="3.75547">
        <ele>202.9</ele>
        <time>2021-01-14T10:29:53Z</time>
      </trkpt>
      <trkpt lat="43.48676" lon="3.7554">
        <ele>202.92</ele>
        <time>2021-01-14T10:29:58Z</time>
      </trkpt>
      <trkpt lat="43.48678" lon="3.75521">
        <ele>202.66</ele>
        <time>2021-01-14T10:30:10Z</time>
      </trkpt>
      <trkpt lat="43.48676" lon="3.75493">
        <ele>202.29</ele>
        <time>2021-01-14T10:30:27Z</time>
      </trkpt>
      <trkpt lat="43.48673" lon="3.75486">
        <ele>202.28</ele>
        <time>2021-01-14T10:30:31Z</time>
      </trkpt>
      <trkpt lat="43.48671" lon="3.75463">
        <ele>201.16</ele>
        <time>2021-01-14T10:30:48Z</time>
      </trkpt>
      <trkpt lat="43.48676" lon="3.75435">
        <ele>201.05</ele>
        <time>2021-01-14T10:31:06Z</time>
      </trkpt>
      <trkpt lat="43.48691" lon="3.75415">
        <ele>201.15</ele>
        <time>2021-01-14T10:31:23Z</time>
      </trkpt>
      <trkpt lat="43.4871" lon="3.75396">
        <ele>201.34</ele>
        <time>2021-01-14T10:31:44Z</time>
      </trkpt>
      <trkpt lat="43.48724" lon="3.7538">
        <ele>200.57</ele>
        <time>2021-01-14T10:31:59Z</time>
      </trkpt>
      <trkpt lat="43.48728" lon="3.75354">
        <ele>201.17</ele>
        <time>2021-01-14T10:32:17Z</time>
      </trkpt>
      <trkpt lat="43.48727" lon="3.75332">
        <ele>202.67</ele>
        <time>2021-01-14T10:32:31Z</time>
      </trkpt>
      <trkpt lat="43.48723" lon="3.75314">
        <ele>203.39</ele>
        <time>2021-01-14T10:32:44Z</time>
      </trkpt>
      <trkpt lat="43.48714" lon="3.75292">
        <ele>203.48</ele>
        <time>2021-01-14T10:32:59Z</time>
      </trkpt>
      <trkpt lat="43.48702" lon="3.75269">
        <ele>205.35</ele>
        <time>2021-01-14T10:33:18Z</time>
      </trkpt>
      <trkpt lat="43.48699" lon="3.75265">
        <ele>205.67</ele>
        <time>2021-01-14T10:33:23Z</time>
      </trkpt>
      <trkpt lat="43.48697" lon="3.75261">
        <ele>205.97</ele>
        <time>2021-01-14T10:33:26Z</time>
      </trkpt>
      <trkpt lat="43.48683" lon="3.75247">
        <ele>207.31</ele>
        <time>2021-01-14T10:33:43Z</time>
      </trkpt>
      <trkpt lat="43.48666" lon="3.75232">
        <ele>208.31</ele>
        <time>2021-01-14T10:34:01Z</time>
      </trkpt>
      <trkpt lat="43.48648" lon="3.7522">
        <ele>208.23</ele>
        <time>2021-01-14T10:34:20Z</time>
      </trkpt>
      <trkpt lat="43.48626" lon="3.75204">
        <ele>207.83</ele>
        <time>2021-01-14T10:34:44Z</time>
      </trkpt>
      <trkpt lat="43.48603" lon="3.75189">
        <ele>207.8</ele>
        <time>2021-01-14T10:35:04Z</time>
      </trkpt>
      <trkpt lat="43.48591" lon="3.75184">
        <ele>208.05</ele>
        <time>2021-01-14T10:35:16Z</time>
      </trkpt>
      <trkpt lat="43.48566" lon="3.7518">
        <ele>207.82</ele>
        <time>2021-01-14T10:35:40Z</time>
      </trkpt>
      <trkpt lat="43.48543" lon="3.75176">
        <ele>208.32</ele>
        <time>2021-01-14T10:35:57Z</time>
      </trkpt>
      <trkpt lat="43.48527" lon="3.75176">
        <ele>208.12</ele>
        <time>2021-01-14T10:36:09Z</time>
      </trkpt>
      <trkpt lat="43.48522" lon="3.75177">
        <ele>208.06</ele>
        <time>2021-01-14T10:36:13Z</time>
      </trkpt>
      <trkpt lat="43.48509" lon="3.7518">
        <ele>208.74</ele>
        <time>2021-01-14T10:36:24Z</time>
      </trkpt>
      <trkpt lat="43.4849" lon="3.7518">
        <ele>208.74</ele>
        <time>2021-01-14T10:36:40Z</time>
      </trkpt>
      <trkpt lat="43.48485" lon="3.75181">
        <ele>208.72</ele>
        <time>2021-01-14T10:36:44Z</time>
      </trkpt>
      <trkpt lat="43.48467" lon="3.75175">
        <ele>208.51</ele>
        <time>2021-01-14T10:37:00Z</time>
      </trkpt>
      <trkpt lat="43.48449" lon="3.75158">
        <ele>209.55</ele>
        <time>2021-01-14T10:37:20Z</time>
      </trkpt>
      <trkpt lat="43.4843" lon="3.75136">
        <ele>209.3</ele>
        <time>2021-01-14T10:37:42Z</time>
      </trkpt>
      <trkpt lat="43.48424" lon="3.75129">
        <ele>209.09</ele>
        <time>2021-01-14T10:37:49Z</time>
      </trkpt>
      <trkpt lat="43.48408" lon="3.75105">
        <ele>209.62</ele>
        <time>2021-01-14T10:38:05Z</time>
      </trkpt>
      <trkpt lat="43.48395" lon="3.75093">
        <ele>210.17</ele>
        <time>2021-01-14T10:38:19Z</time>
      </trkpt>
      <trkpt lat="43.48373" lon="3.75083">
        <ele>211.55</ele>
        <time>2021-01-14T10:38:40Z</time>
      </trkpt>
      <trkpt lat="43.48352" lon="3.75079">
        <ele>211.11</ele>
        <time>2021-01-14T10:38:56Z</time>
      </trkpt>
      <trkpt lat="43.48331" lon="3.75076">
        <ele>210.5</ele>
        <time>2021-01-14T10:39:13Z</time>
      </trkpt>
      <trkpt lat="43.48315" lon="3.75069">
        <ele>210.64</ele>
        <time>2021-01-14T10:39:28Z</time>
      </trkpt>
      <trkpt lat="43.48298" lon="3.75061">
        <ele>210.15</ele>
        <time>2021-01-14T10:39:43Z</time>
      </trkpt>
      <trkpt lat="43.48281" lon="3.75053">
        <ele>210.66</ele>
        <time>2021-01-14T10:39:57Z</time>
      </trkpt>
      <trkpt lat="43.48265" lon="3.75043">
        <ele>210.97</ele>
        <time>2021-01-14T10:40:12Z</time>
      </trkpt>
      <trkpt lat="43.4825" lon="3.75034">
        <ele>211.39</ele>
        <time>2021-01-14T10:40:27Z</time>
      </trkpt>
      <trkpt lat="43.48235" lon="3.75015">
        <ele>210.17</ele>
        <time>2021-01-14T10:40:43Z</time>
      </trkpt>
      <trkpt lat="43.48225" lon="3.74996">
        <ele>210.14</ele>
        <time>2021-01-14T10:40:57Z</time>
      </trkpt>
      <trkpt lat="43.4822" lon="3.7498">
        <ele>210.66</ele>
        <time>2021-01-14T10:41:08Z</time>
      </trkpt>
      <trkpt lat="43.48218" lon="3.74972">
        <ele>210.62</ele>
        <time>2021-01-14T10:41:13Z</time>
      </trkpt>
      <trkpt lat="43.48216" lon="3.74943">
        <ele>210.83</ele>
        <time>2021-01-14T10:41:29Z</time>
      </trkpt>
      <trkpt lat="43.48214" lon="3.74918">
        <ele>209.76</ele>
        <time>2021-01-14T10:41:44Z</time>
      </trkpt>
      <trkpt lat="43.48213" lon="3.74899">
        <ele>209.73</ele>
        <time>2021-01-14T10:41:59Z</time>
      </trkpt>
      <trkpt lat="43.48212" lon="3.74895">
        <ele>209.95</ele>
        <time>2021-01-14T10:42:13Z</time>
      </trkpt>
      <trkpt lat="43.48212" lon="3.7489">
        <ele>209.92</ele>
        <time>2021-01-14T10:42:17Z</time>
      </trkpt>
      <trkpt lat="43.48216" lon="3.74861">
        <ele>209.75</ele>
        <time>2021-01-14T10:42:35Z</time>
      </trkpt>
      <trkpt lat="43.48218" lon="3.74841">
        <ele>210.14</ele>
        <time>2021-01-14T10:42:46Z</time>
      </trkpt>
      <trkpt lat="43.48221" lon="3.74815">
        <ele>210.78</ele>
        <time>2021-01-14T10:43:02Z</time>
      </trkpt>
      <trkpt lat="43.48222" lon="3.74782">
        <ele>211.84</ele>
        <time>2021-01-14T10:43:22Z</time>
      </trkpt>
      <trkpt lat="43.48221" lon="3.74751">
        <ele>211.33</ele>
        <time>2021-01-14T10:43:41Z</time>
      </trkpt>
      <trkpt lat="43.48222" lon="3.74726">
        <ele>211.51</ele>
        <time>2021-01-14T10:43:55Z</time>
      </trkpt>
      <trkpt lat="43.48221" lon="3.74713">
        <ele>211.24</ele>
        <time>2021-01-14T10:44:03Z</time>
      </trkpt>
      <trkpt lat="43.48217" lon="3.74687">
        <ele>211.33</ele>
        <time>2021-01-14T10:44:17Z</time>
      </trkpt>
      <trkpt lat="43.48215" lon="3.74674">
        <ele>211.62</ele>
        <time>2021-01-14T10:44:25Z</time>
      </trkpt>
      <trkpt lat="43.48207" lon="3.74652">
        <ele>211.16</ele>
        <time>2021-01-14T10:44:39Z</time>
      </trkpt>
      <trkpt lat="43.48207" lon="3.7465">
        <ele>211.13</ele>
        <time>2021-01-14T10:44:40Z</time>
      </trkpt>
      <trkpt lat="43.48199" lon="3.74627">
        <ele>211.24</ele>
        <time>2021-01-14T10:44:56Z</time>
      </trkpt>
      <trkpt lat="43.48197" lon="3.74623">
        <ele>211.88</ele>
        <time>2021-01-14T10:44:59Z</time>
      </trkpt>
      <trkpt lat="43.48195" lon="3.74609">
        <ele>211.97</ele>
        <time>2021-01-14T10:45:08Z</time>
      </trkpt>
      <trkpt lat="43.48188" lon="3.74588">
        <ele>213.34</ele>
        <time>2021-01-14T10:45:21Z</time>
      </trkpt>
      <trkpt lat="43.48184" lon="3.74568">
        <ele>214</ele>
        <time>2021-01-14T10:45:34Z</time>
      </trkpt>
      <trkpt lat="43.48177" lon="3.74546">
        <ele>213.16</ele>
        <time>2021-01-14T10:45:49Z</time>
      </trkpt>
      <trkpt lat="43.4817" lon="3.74516">
        <ele>214.27</ele>
        <time>2021-01-14T10:46:09Z</time>
      </trkpt>
      <trkpt lat="43.48168" lon="3.74507">
        <ele>214.08</ele>
        <time>2021-01-14T10:46:15Z</time>
      </trkpt>
      <trkpt lat="43.48163" lon="3.74496">
        <ele>214.02</ele>
        <time>2021-01-14T10:46:23Z</time>
      </trkpt>
      <trkpt lat="43.48159" lon="3.7449">
        <ele>214.28</ele>
        <time>2021-01-14T10:46:27Z</time>
      </trkpt>
      <trkpt lat="43.4815" lon="3.74472">
        <ele>215.43</ele>
        <time>2021-01-14T10:46:37Z</time>
      </trkpt>
      <trkpt lat="43.48143" lon="3.74453">
        <ele>215.86</ele>
        <time>2021-01-14T10:46:49Z</time>
      </trkpt>
      <trkpt lat="43.48136" lon="3.74421">
        <ele>216.32</ele>
        <time>2021-01-14T10:47:11Z</time>
      </trkpt>
      <trkpt lat="43.48136" lon="3.74414">
        <ele>216.22</ele>
        <time>2021-01-14T10:47:16Z</time>
      </trkpt>
      <trkpt lat="43.48136" lon="3.74379">
        <ele>218.08</ele>
        <time>2021-01-14T10:47:38Z</time>
      </trkpt>
      <trkpt lat="43.48138" lon="3.74348">
        <ele>217.95</ele>
        <time>2021-01-14T10:47:58Z</time>
      </trkpt>
      <trkpt lat="43.48137" lon="3.74318">
        <ele>218.68</ele>
        <time>2021-01-14T10:48:18Z</time>
      </trkpt>
      <trkpt lat="43.48142" lon="3.74283">
        <ele>219.58</ele>
        <time>2021-01-14T10:48:40Z</time>
      </trkpt>
      <trkpt lat="43.48148" lon="3.74248">
        <ele>219.98</ele>
        <time>2021-01-14T10:49:03Z</time>
      </trkpt>
      <trkpt lat="43.48153" lon="3.74226">
        <ele>219.78</ele>
        <time>2021-01-14T10:49:17Z</time>
      </trkpt>
      <trkpt lat="43.4816" lon="3.74201">
        <ele>220.47</ele>
        <time>2021-01-14T10:49:33Z</time>
      </trkpt>
      <trkpt lat="43.48165" lon="3.74186">
        <ele>221.32</ele>
        <time>2021-01-14T10:49:43Z</time>
      </trkpt>
      <trkpt lat="43.48171" lon="3.74163">
        <ele>221.34</ele>
        <time>2021-01-14T10:49:58Z</time>
      </trkpt>
      <trkpt lat="43.48175" lon="3.74136">
        <ele>223.02</ele>
        <time>2021-01-14T10:50:15Z</time>
      </trkpt>
      <trkpt lat="43.48175" lon="3.74133">
        <ele>222.96</ele>
        <time>2021-01-14T10:50:17Z</time>
      </trkpt>
      <trkpt lat="43.48176" lon="3.74125">
        <ele>222.91</ele>
        <time>2021-01-14T10:50:22Z</time>
      </trkpt>
      <trkpt lat="43.48178" lon="3.74113">
        <ele>223.22</ele>
        <time>2021-01-14T10:50:29Z</time>
      </trkpt>
      <trkpt lat="43.48181" lon="3.74085">
        <ele>223.05</ele>
        <time>2021-01-14T10:50:46Z</time>
      </trkpt>
      <trkpt lat="43.48179" lon="3.74061">
        <ele>224.19</ele>
        <time>2021-01-14T10:51:03Z</time>
      </trkpt>
      <trkpt lat="43.48174" lon="3.74053">
        <ele>226.46</ele>
        <time>2021-01-14T10:51:18Z</time>
      </trkpt>
      <trkpt lat="43.48171" lon="3.74051">
        <ele>226.84</ele>
        <time>2021-01-14T10:51:50Z</time>
      </trkpt>
      <trkpt lat="43.48171" lon="3.74052">
        <ele>227.22</ele>
        <time>2021-01-14T10:52:19Z</time>
      </trkpt>
      <trkpt lat="43.48169" lon="3.74051">
        <ele>227.88</ele>
        <time>2021-01-14T10:52:49Z</time>
      </trkpt>
      <trkpt lat="43.48168" lon="3.74052">
        <ele>229.27</ele>
        <time>2021-01-14T10:53:20Z</time>
      </trkpt>
      <trkpt lat="43.48159" lon="3.74053">
        <ele>230.03</ele>
        <time>2021-01-14T10:53:41Z</time>
      </trkpt>
      <trkpt lat="43.48157" lon="3.74055">
        <ele>230.62</ele>
        <time>2021-01-14T10:53:44Z</time>
      </trkpt>
      <trkpt lat="43.48137" lon="3.74061">
        <ele>230.58</ele>
        <time>2021-01-14T10:54:00Z</time>
      </trkpt>
      <trkpt lat="43.48129" lon="3.74068">
        <ele>230.04</ele>
        <time>2021-01-14T10:54:08Z</time>
      </trkpt>
      <trkpt lat="43.48119" lon="3.74077">
        <ele>231.3</ele>
        <time>2021-01-14T10:54:18Z</time>
      </trkpt>
      <trkpt lat="43.48111" lon="3.74083">
        <ele>230.56</ele>
        <time>2021-01-14T10:54:31Z</time>
      </trkpt>
      <trkpt lat="43.48105" lon="3.74083">
        <ele>230.12</ele>
        <time>2021-01-14T10:54:37Z</time>
      </trkpt>
      <trkpt lat="43.48098" lon="3.74083">
        <ele>229.76</ele>
        <time>2021-01-14T10:54:43Z</time>
      </trkpt>
      <trkpt lat="43.48095" lon="3.74084">
        <ele>229.66</ele>
        <time>2021-01-14T10:54:45Z</time>
      </trkpt>
      <trkpt lat="43.48076" lon="3.7408">
        <ele>229.43</ele>
        <time>2021-01-14T10:55:00Z</time>
      </trkpt>
      <trkpt lat="43.48074" lon="3.74079">
        <ele>229.4</ele>
        <time>2021-01-14T10:55:02Z</time>
      </trkpt>
      <trkpt lat="43.48071" lon="3.74078">
        <ele>229.81</ele>
        <time>2021-01-14T10:55:05Z</time>
      </trkpt>
      <trkpt lat="43.48052" lon="3.74069">
        <ele>229.43</ele>
        <time>2021-01-14T10:55:21Z</time>
      </trkpt>
      <trkpt lat="43.48051" lon="3.74068">
        <ele>229.39</ele>
        <time>2021-01-14T10:55:22Z</time>
      </trkpt>
      <trkpt lat="43.48044" lon="3.74067">
        <ele>229.55</ele>
        <time>2021-01-14T10:55:27Z</time>
      </trkpt>
      <trkpt lat="43.48031" lon="3.74066">
        <ele>230.28</ele>
        <time>2021-01-14T10:55:36Z</time>
      </trkpt>
      <trkpt lat="43.48028" lon="3.74067">
        <ele>230.19</ele>
        <time>2021-01-14T10:55:38Z</time>
      </trkpt>
      <trkpt lat="43.48012" lon="3.74064">
        <ele>229.54</ele>
        <time>2021-01-14T10:55:50Z</time>
      </trkpt>
      <trkpt lat="43.48" lon="3.74062">
        <ele>229.65</ele>
        <time>2021-01-14T10:56:00Z</time>
      </trkpt>
      <trkpt lat="43.47995" lon="3.74062">
        <ele>229.81</ele>
        <time>2021-01-14T10:56:03Z</time>
      </trkpt>
      <trkpt lat="43.4798" lon="3.74064">
        <ele>229.97</ele>
        <time>2021-01-14T10:56:17Z</time>
      </trkpt>
      <trkpt lat="43.47963" lon="3.74064">
        <ele>229.97</ele>
        <time>2021-01-14T10:56:30Z</time>
      </trkpt>
      <trkpt lat="43.47942" lon="3.74058">
        <ele>229.88</ele>
        <time>2021-01-14T10:56:47Z</time>
      </trkpt>
      <trkpt lat="43.47936" lon="3.74056">
        <ele>229.98</ele>
        <time>2021-01-14T10:56:51Z</time>
      </trkpt>
      <trkpt lat="43.4792" lon="3.74054">
        <ele>229.83</ele>
        <time>2021-01-14T10:57:03Z</time>
      </trkpt>
      <trkpt lat="43.47904" lon="3.74049">
        <ele>230.42</ele>
        <time>2021-01-14T10:57:15Z</time>
      </trkpt>
      <trkpt lat="43.47888" lon="3.74042">
        <ele>228.85</ele>
        <time>2021-01-14T10:57:31Z</time>
      </trkpt>
      <trkpt lat="43.47875" lon="3.74023">
        <ele>228.54</ele>
        <time>2021-01-14T10:57:48Z</time>
      </trkpt>
      <trkpt lat="43.47864" lon="3.74004">
        <ele>228.8</ele>
        <time>2021-01-14T10:58:03Z</time>
      </trkpt>
      <trkpt lat="43.47854" lon="3.7399">
        <ele>228.37</ele>
        <time>2021-01-14T10:58:15Z</time>
      </trkpt>
      <trkpt lat="43.47847" lon="3.73964">
        <ele>228.17</ele>
        <time>2021-01-14T10:58:31Z</time>
      </trkpt>
      <trkpt lat="43.47844" lon="3.7395">
        <ele>227.93</ele>
        <time>2021-01-14T10:58:39Z</time>
      </trkpt>
      <trkpt lat="43.47841" lon="3.73917">
        <ele>227.71</ele>
        <time>2021-01-14T10:58:59Z</time>
      </trkpt>
      <trkpt lat="43.47838" lon="3.73904">
        <ele>227.8</ele>
        <time>2021-01-14T10:59:09Z</time>
      </trkpt>
      <trkpt lat="43.47828" lon="3.73869">
        <ele>228.41</ele>
        <time>2021-01-14T10:59:30Z</time>
      </trkpt>
      <trkpt lat="43.47816" lon="3.7384">
        <ele>228.77</ele>
        <time>2021-01-14T10:59:49Z</time>
      </trkpt>
      <trkpt lat="43.47807" lon="3.73817">
        <ele>228.21</ele>
        <time>2021-01-14T11:00:05Z</time>
      </trkpt>
      <trkpt lat="43.47803" lon="3.73812">
        <ele>227.97</ele>
        <time>2021-01-14T11:00:09Z</time>
      </trkpt>
      <trkpt lat="43.478" lon="3.73805">
        <ele>228.09</ele>
        <time>2021-01-14T11:00:13Z</time>
      </trkpt>
      <trkpt lat="43.47793" lon="3.73795">
        <ele>228.56</ele>
        <time>2021-01-14T11:00:21Z</time>
      </trkpt>
      <trkpt lat="43.47781" lon="3.73777">
        <ele>227.83</ele>
        <time>2021-01-14T11:00:36Z</time>
      </trkpt>
      <trkpt lat="43.47771" lon="3.73766">
        <ele>228.36</ele>
        <time>2021-01-14T11:00:50Z</time>
      </trkpt>
      <trkpt lat="43.47757" lon="3.73752">
        <ele>228.62</ele>
        <time>2021-01-14T11:01:11Z</time>
      </trkpt>
      <trkpt lat="43.47741" lon="3.73737">
        <ele>227.79</ele>
        <time>2021-01-14T11:01:27Z</time>
      </trkpt>
      <trkpt lat="43.47738" lon="3.73735">
        <ele>228.17</ele>
        <time>2021-01-14T11:01:30Z</time>
      </trkpt>
      <trkpt lat="43.47725" lon="3.73726">
        <ele>227.07</ele>
        <time>2021-01-14T11:01:41Z</time>
      </trkpt>
      <trkpt lat="43.47722" lon="3.73725">
        <ele>226.93</ele>
        <time>2021-01-14T11:01:43Z</time>
      </trkpt>
      <trkpt lat="43.47717" lon="3.73722">
        <ele>226.81</ele>
        <time>2021-01-14T11:01:47Z</time>
      </trkpt>
      <trkpt lat="43.47699" lon="3.73713">
        <ele>226.98</ele>
        <time>2021-01-14T11:02:01Z</time>
      </trkpt>
      <trkpt lat="43.47682" lon="3.73706">
        <ele>226.53</ele>
        <time>2021-01-14T11:02:15Z</time>
      </trkpt>
      <trkpt lat="43.47661" lon="3.737">
        <ele>225.92</ele>
        <time>2021-01-14T11:02:32Z</time>
      </trkpt>
      <trkpt lat="43.47647" lon="3.73696">
        <ele>226.03</ele>
        <time>2021-01-14T11:02:46Z</time>
      </trkpt>
      <trkpt lat="43.47626" lon="3.73691">
        <ele>225.13</ele>
        <time>2021-01-14T11:03:03Z</time>
      </trkpt>
      <trkpt lat="43.47612" lon="3.7369">
        <ele>224.9</ele>
        <time>2021-01-14T11:03:18Z</time>
      </trkpt>
      <trkpt lat="43.47593" lon="3.73683">
        <ele>224.99</ele>
        <time>2021-01-14T11:03:39Z</time>
      </trkpt>
      <trkpt lat="43.47567" lon="3.73679">
        <ele>224.47</ele>
        <time>2021-01-14T11:04:01Z</time>
      </trkpt>
      <trkpt lat="43.47561" lon="3.73677">
        <ele>224.58</ele>
        <time>2021-01-14T11:04:06Z</time>
      </trkpt>
      <trkpt lat="43.4754" lon="3.73676">
        <ele>223.85</ele>
        <time>2021-01-14T11:04:24Z</time>
      </trkpt>
      <trkpt lat="43.47519" lon="3.7367">
        <ele>222.25</ele>
        <time>2021-01-14T11:04:42Z</time>
      </trkpt>
      <trkpt lat="43.47508" lon="3.73667">
        <ele>221.97</ele>
        <time>2021-01-14T11:05:02Z</time>
      </trkpt>
      <trkpt lat="43.47495" lon="3.73669">
        <ele>220.82</ele>
        <time>2021-01-14T11:05:19Z</time>
      </trkpt>
      <trkpt lat="43.47491" lon="3.73665">
        <ele>220.79</ele>
        <time>2021-01-14T11:05:38Z</time>
      </trkpt>
      <trkpt lat="43.47491" lon="3.73659">
        <ele>221.05</ele>
        <time>2021-01-14T11:05:58Z</time>
      </trkpt>
      <trkpt lat="43.47493" lon="3.73652">
        <ele>221.73</ele>
        <time>2021-01-14T11:06:18Z</time>
      </trkpt>
      <trkpt lat="43.47491" lon="3.7365">
        <ele>222.17</ele>
        <time>2021-01-14T11:06:41Z</time>
      </trkpt>
      <trkpt lat="43.47487" lon="3.73651">
        <ele>222.77</ele>
        <time>2021-01-14T11:07:04Z</time>
      </trkpt>
      <trkpt lat="43.47487" lon="3.73651">
        <ele>221.86</ele>
        <time>2021-01-14T11:07:28Z</time>
      </trkpt>
      <trkpt lat="43.47487" lon="3.7365">
        <ele>220.68</ele>
        <time>2021-01-14T11:07:47Z</time>
      </trkpt>
      <trkpt lat="43.47488" lon="3.73648">
        <ele>221.15</ele>
        <time>2021-01-14T11:08:20Z</time>
      </trkpt>
      <trkpt lat="43.47488" lon="3.73649">
        <ele>221.41</ele>
        <time>2021-01-14T11:08:52Z</time>
      </trkpt>
      <trkpt lat="43.4749" lon="3.7365">
        <ele>221.95</ele>
        <time>2021-01-14T11:09:29Z</time>
      </trkpt>
      <trkpt lat="43.47487" lon="3.73648">
        <ele>221.62</ele>
        <time>2021-01-14T11:10:42Z</time>
      </trkpt>
      <trkpt lat="43.47488" lon="3.73647">
        <ele>222.79</ele>
        <time>2021-01-14T11:11:43Z</time>
      </trkpt>
      <trkpt lat="43.4749" lon="3.73648">
        <ele>223.15</ele>
        <time>2021-01-14T11:12:12Z</time>
      </trkpt>
      <trkpt lat="43.47489" lon="3.73651">
        <ele>223.17</ele>
        <time>2021-01-14T11:12:46Z</time>
      </trkpt>
      <trkpt lat="43.47488" lon="3.7365">
        <ele>223.19</ele>
        <time>2021-01-14T11:13:17Z</time>
      </trkpt>
      <trkpt lat="43.47486" lon="3.73649">
        <ele>223.95</ele>
        <time>2021-01-14T11:13:52Z</time>
      </trkpt>
      <trkpt lat="43.47485" lon="3.7365">
        <ele>223.82</ele>
        <time>2021-01-14T11:14:27Z</time>
      </trkpt>
      <trkpt lat="43.47485" lon="3.7365">
        <ele>223.09</ele>
        <time>2021-01-14T11:14:57Z</time>
      </trkpt>
      <trkpt lat="43.47485" lon="3.7365">
        <ele>223.89</ele>
        <time>2021-01-14T11:15:28Z</time>
      </trkpt>
      <trkpt lat="43.47484" lon="3.73648">
        <ele>223.36</ele>
        <time>2021-01-14T11:16:01Z</time>
      </trkpt>
      <trkpt lat="43.47486" lon="3.73649">
        <ele>223.6</ele>
        <time>2021-01-14T11:16:35Z</time>
      </trkpt>
      <trkpt lat="43.47488" lon="3.73647">
        <ele>222.93</ele>
        <time>2021-01-14T11:17:08Z</time>
      </trkpt>
      <trkpt lat="43.47487" lon="3.73648">
        <ele>222.72</ele>
        <time>2021-01-14T11:17:40Z</time>
      </trkpt>
      <trkpt lat="43.47487" lon="3.73649">
        <ele>223.18</ele>
        <time>2021-01-14T11:18:11Z</time>
      </trkpt>
      <trkpt lat="43.47488" lon="3.73651">
        <ele>222.29</ele>
        <time>2021-01-14T11:18:49Z</time>
      </trkpt>
      <trkpt lat="43.47488" lon="3.73651">
        <ele>223.08</ele>
        <time>2021-01-14T11:19:22Z</time>
      </trkpt>
      <trkpt lat="43.47488" lon="3.7365">
        <ele>223.47</ele>
        <time>2021-01-14T11:19:54Z</time>
      </trkpt>
      <trkpt lat="43.47489" lon="3.73652">
        <ele>223.19</ele>
        <time>2021-01-14T11:20:24Z</time>
      </trkpt>
      <trkpt lat="43.47491" lon="3.73651">
        <ele>223.42</ele>
        <time>2021-01-14T11:21:00Z</time>
      </trkpt>
      <trkpt lat="43.47492" lon="3.73651">
        <ele>223.71</ele>
        <time>2021-01-14T11:21:36Z</time>
      </trkpt>
      <trkpt lat="43.47493" lon="3.73652">
        <ele>223.64</ele>
        <time>2021-01-14T11:22:07Z</time>
      </trkpt>
      <trkpt lat="43.47491" lon="3.73651">
        <ele>222.67</ele>
        <time>2021-01-14T11:22:38Z</time>
      </trkpt>
      <trkpt lat="43.47489" lon="3.73653">
        <ele>222.92</ele>
        <time>2021-01-14T11:23:21Z</time>
      </trkpt>
      <trkpt lat="43.4749" lon="3.73649">
        <ele>223.05</ele>
        <time>2021-01-14T11:23:52Z</time>
      </trkpt>
      <trkpt lat="43.47488" lon="3.73652">
        <ele>222.88</ele>
        <time>2021-01-14T11:24:24Z</time>
      </trkpt>
      <trkpt lat="43.47487" lon="3.73654">
        <ele>223.56</ele>
        <time>2021-01-14T11:24:53Z</time>
      </trkpt>
      <trkpt lat="43.47488" lon="3.73652">
        <ele>223.71</ele>
        <time>2021-01-14T11:25:22Z</time>
      </trkpt>
      <trkpt lat="43.47488" lon="3.7365">
        <ele>224.44</ele>
        <time>2021-01-14T11:26:00Z</time>
      </trkpt>
      <trkpt lat="43.47489" lon="3.73651">
        <ele>223.47</ele>
        <time>2021-01-14T11:26:30Z</time>
      </trkpt>
      <trkpt lat="43.4749" lon="3.73651">
        <ele>223.23</ele>
        <time>2021-01-14T11:27:03Z</time>
      </trkpt>
      <trkpt lat="43.47491" lon="3.73652">
        <ele>222.44</ele>
        <time>2021-01-14T11:27:41Z</time>
      </trkpt>
      <trkpt lat="43.4749" lon="3.73651">
        <ele>222.74</ele>
        <time>2021-01-14T11:28:21Z</time>
      </trkpt>
      <trkpt lat="43.47492" lon="3.73649">
        <ele>223</ele>
        <time>2021-01-14T11:28:52Z</time>
      </trkpt>
      <trkpt lat="43.47491" lon="3.7365">
        <ele>223.07</ele>
        <time>2021-01-14T11:29:42Z</time>
      </trkpt>
      <trkpt lat="43.47489" lon="3.73652">
        <ele>222.27</ele>
        <time>2021-01-14T11:30:16Z</time>
      </trkpt>
      <trkpt lat="43.47488" lon="3.73651">
        <ele>222.14</ele>
        <time>2021-01-14T11:30:49Z</time>
      </trkpt>
      <trkpt lat="43.47487" lon="3.73651">
        <ele>222.51</ele>
        <time>2021-01-14T11:31:20Z</time>
      </trkpt>
      <trkpt lat="43.47488" lon="3.73652">
        <ele>222.28</ele>
        <time>2021-01-14T11:31:49Z</time>
      </trkpt>
      <trkpt lat="43.47488" lon="3.73651">
        <ele>222.37</ele>
        <time>2021-01-14T11:32:19Z</time>
      </trkpt>
      <trkpt lat="43.47491" lon="3.73648">
        <ele>222.39</ele>
        <time>2021-01-14T11:32:49Z</time>
      </trkpt>
      <trkpt lat="43.47489" lon="3.7365">
        <ele>222.57</ele>
        <time>2021-01-14T11:33:21Z</time>
      </trkpt>
      <trkpt lat="43.47493" lon="3.73649">
        <ele>222.37</ele>
        <time>2021-01-14T11:33:53Z</time>
      </trkpt>
      <trkpt lat="43.47494" lon="3.73648">
        <ele>222.23</ele>
        <time>2021-01-14T11:34:23Z</time>
      </trkpt>
      <trkpt lat="43.47491" lon="3.73652">
        <ele>221.91</ele>
        <time>2021-01-14T11:34:56Z</time>
      </trkpt>
      <trkpt lat="43.47494" lon="3.7365">
        <ele>222.49</ele>
        <time>2021-01-14T11:35:28Z</time>
      </trkpt>
      <trkpt lat="43.47492" lon="3.73652">
        <ele>222.11</ele>
        <time>2021-01-14T11:35:58Z</time>
      </trkpt>
      <trkpt lat="43.4749" lon="3.73652">
        <ele>222.2</ele>
        <time>2021-01-14T11:36:28Z</time>
      </trkpt>
      <trkpt lat="43.47492" lon="3.73652">
        <ele>222.62</ele>
        <time>2021-01-14T11:36:59Z</time>
      </trkpt>
      <trkpt lat="43.4749" lon="3.73651">
        <ele>222.94</ele>
        <time>2021-01-14T11:37:32Z</time>
      </trkpt>
      <trkpt lat="43.47493" lon="3.7365">
        <ele>222.8</ele>
        <time>2021-01-14T11:38:04Z</time>
      </trkpt>
      <trkpt lat="43.47492" lon="3.7365">
        <ele>224.07</ele>
        <time>2021-01-14T11:38:39Z</time>
      </trkpt>
      <trkpt lat="43.4749" lon="3.73649">
        <ele>223.63</ele>
        <time>2021-01-14T11:39:49Z</time>
      </trkpt>
      <trkpt lat="43.47491" lon="3.7365">
        <ele>223.53</ele>
        <time>2021-01-14T11:40:56Z</time>
      </trkpt>
      <trkpt lat="43.47496" lon="3.7365">
        <ele>224.02</ele>
        <time>2021-01-14T11:42:00Z</time>
      </trkpt>
      <trkpt lat="43.47498" lon="3.73649">
        <ele>224.03</ele>
        <time>2021-01-14T11:42:38Z</time>
      </trkpt>
      <trkpt lat="43.475" lon="3.73648">
        <ele>224.33</ele>
        <time>2021-01-14T11:43:11Z</time>
      </trkpt>
      <trkpt lat="43.475" lon="3.73648">
        <ele>224.56</ele>
        <time>2021-01-14T11:43:48Z</time>
      </trkpt>
      <trkpt lat="43.47498" lon="3.73647">
        <ele>224.11</ele>
        <time>2021-01-14T11:44:18Z</time>
      </trkpt>
      <trkpt lat="43.47498" lon="3.73647">
        <ele>223.62</ele>
        <time>2021-01-14T11:44:50Z</time>
      </trkpt>
      <trkpt lat="43.475" lon="3.73648">
        <ele>224.13</ele>
        <time>2021-01-14T11:45:28Z</time>
      </trkpt>
      <trkpt lat="43.47499" lon="3.73648">
        <ele>223.84</ele>
        <time>2021-01-14T11:46:07Z</time>
      </trkpt>
      <trkpt lat="43.47497" lon="3.73649">
        <ele>224.02</ele>
        <time>2021-01-14T11:46:45Z</time>
      </trkpt>
      <trkpt lat="43.47497" lon="3.73649">
        <ele>224.32</ele>
        <time>2021-01-14T11:47:23Z</time>
      </trkpt>
      <trkpt lat="43.47498" lon="3.73649">
        <ele>224.34</ele>
        <time>2021-01-14T11:47:57Z</time>
      </trkpt>
      <trkpt lat="43.47495" lon="3.73647">
        <ele>224.69</ele>
        <time>2021-01-14T11:48:28Z</time>
      </trkpt>
      <trkpt lat="43.47496" lon="3.73648">
        <ele>225.17</ele>
        <time>2021-01-14T11:49:01Z</time>
      </trkpt>
      <trkpt lat="43.47497" lon="3.7365">
        <ele>224.81</ele>
        <time>2021-01-14T11:49:45Z</time>
      </trkpt>
      <trkpt lat="43.47496" lon="3.7365">
        <ele>225.36</ele>
        <time>2021-01-14T11:50:19Z</time>
      </trkpt>
      <trkpt lat="43.47496" lon="3.73649">
        <ele>227</ele>
        <time>2021-01-14T11:50:40Z</time>
      </trkpt>
      <trkpt lat="43.47495" lon="3.73647">
        <ele>226.39</ele>
        <time>2021-01-14T11:51:06Z</time>
      </trkpt>
      <trkpt lat="43.47496" lon="3.73646">
        <ele>226.13</ele>
        <time>2021-01-14T11:51:38Z</time>
      </trkpt>
      <trkpt lat="43.47495" lon="3.73656">
        <ele>224.67</ele>
        <time>2021-01-14T11:52:02Z</time>
      </trkpt>
      <trkpt lat="43.47493" lon="3.73658">
        <ele>224.82</ele>
        <time>2021-01-14T11:52:27Z</time>
      </trkpt>
      <trkpt lat="43.47492" lon="3.7366">
        <ele>224.59</ele>
        <time>2021-01-14T11:52:56Z</time>
      </trkpt>
      <trkpt lat="43.4749" lon="3.7366">
        <ele>225.36</ele>
        <time>2021-01-14T11:53:27Z</time>
      </trkpt>
      <trkpt lat="43.47492" lon="3.73656">
        <ele>225.64</ele>
        <time>2021-01-14T11:53:51Z</time>
      </trkpt>
      <trkpt lat="43.47491" lon="3.73658">
        <ele>224.3</ele>
        <time>2021-01-14T11:54:21Z</time>
      </trkpt>
      <trkpt lat="43.47489" lon="3.7366">
        <ele>224.75</ele>
        <time>2021-01-14T11:54:47Z</time>
      </trkpt>
      <trkpt lat="43.47485" lon="3.73654">
        <ele>225.03</ele>
        <time>2021-01-14T11:55:06Z</time>
      </trkpt>
      <trkpt lat="43.47472" lon="3.73639">
        <ele>223.39</ele>
        <time>2021-01-14T11:55:26Z</time>
      </trkpt>
      <trkpt lat="43.47466" lon="3.73628">
        <ele>222.86</ele>
        <time>2021-01-14T11:55:37Z</time>
      </trkpt>
      <trkpt lat="43.47455" lon="3.73615">
        <ele>221.81</ele>
        <time>2021-01-14T11:55:52Z</time>
      </trkpt>
      <trkpt lat="43.47453" lon="3.73614">
        <ele>221.68</ele>
        <time>2021-01-14T11:55:54Z</time>
      </trkpt>
      <trkpt lat="43.47442" lon="3.73603">
        <ele>220.93</ele>
        <time>2021-01-14T11:56:08Z</time>
      </trkpt>
      <trkpt lat="43.47427" lon="3.73583">
        <ele>219.56</ele>
        <time>2021-01-14T11:56:29Z</time>
      </trkpt>
      <trkpt lat="43.47416" lon="3.73573">
        <ele>218.47</ele>
        <time>2021-01-14T11:56:43Z</time>
      </trkpt>
      <trkpt lat="43.4741" lon="3.73569">
        <ele>217.96</ele>
        <time>2021-01-14T11:56:50Z</time>
      </trkpt>
      <trkpt lat="43.47395" lon="3.73555">
        <ele>216.36</ele>
        <time>2021-01-14T11:57:06Z</time>
      </trkpt>
      <trkpt lat="43.47379" lon="3.73548">
        <ele>214.84</ele>
        <time>2021-01-14T11:57:22Z</time>
      </trkpt>
      <trkpt lat="43.47362" lon="3.73539">
        <ele>213.89</ele>
        <time>2021-01-14T11:57:39Z</time>
      </trkpt>
      <trkpt lat="43.47349" lon="3.73534">
        <ele>211.82</ele>
        <time>2021-01-14T11:57:53Z</time>
      </trkpt>
      <trkpt lat="43.47336" lon="3.73527">
        <ele>211.47</ele>
        <time>2021-01-14T11:58:12Z</time>
      </trkpt>
      <trkpt lat="43.47324" lon="3.73517">
        <ele>210.32</ele>
        <time>2021-01-14T11:58:25Z</time>
      </trkpt>
      <trkpt lat="43.47309" lon="3.73502">
        <ele>209.53</ele>
        <time>2021-01-14T11:58:42Z</time>
      </trkpt>
      <trkpt lat="43.47297" lon="3.73487">
        <ele>208.04</ele>
        <time>2021-01-14T11:58:57Z</time>
      </trkpt>
      <trkpt lat="43.47291" lon="3.73478">
        <ele>207.07</ele>
        <time>2021-01-14T11:59:14Z</time>
      </trkpt>
      <trkpt lat="43.47275" lon="3.73461">
        <ele>205.59</ele>
        <time>2021-01-14T11:59:33Z</time>
      </trkpt>
      <trkpt lat="43.47272" lon="3.73458">
        <ele>206.32</ele>
        <time>2021-01-14T11:59:36Z</time>
      </trkpt>
      <trkpt lat="43.47269" lon="3.73456">
        <ele>206.53</ele>
        <time>2021-01-14T11:59:39Z</time>
      </trkpt>
      <trkpt lat="43.47249" lon="3.73444">
        <ele>205.28</ele>
        <time>2021-01-14T11:59:57Z</time>
      </trkpt>
      <trkpt lat="43.47233" lon="3.73439">
        <ele>203.74</ele>
        <time>2021-01-14T12:00:12Z</time>
      </trkpt>
      <trkpt lat="43.47218" lon="3.73439">
        <ele>202.97</ele>
        <time>2021-01-14T12:00:25Z</time>
      </trkpt>
      <trkpt lat="43.47217" lon="3.73439">
        <ele>202.97</ele>
        <time>2021-01-14T12:00:26Z</time>
      </trkpt>
      <trkpt lat="43.47197" lon="3.73442">
        <ele>200.78</ele>
        <time>2021-01-14T12:00:44Z</time>
      </trkpt>
      <trkpt lat="43.47181" lon="3.73446">
        <ele>200.02</ele>
        <time>2021-01-14T12:01:00Z</time>
      </trkpt>
      <trkpt lat="43.47166" lon="3.73449">
        <ele>197.95</ele>
        <time>2021-01-14T12:01:16Z</time>
      </trkpt>
      <trkpt lat="43.47163" lon="3.7345">
        <ele>198.09</ele>
        <time>2021-01-14T12:01:31Z</time>
      </trkpt>
      <trkpt lat="43.47147" lon="3.73453">
        <ele>196.87</ele>
        <time>2021-01-14T12:01:48Z</time>
      </trkpt>
      <trkpt lat="43.47128" lon="3.73452">
        <ele>193.74</ele>
        <time>2021-01-14T12:02:04Z</time>
      </trkpt>
      <trkpt lat="43.47119" lon="3.73452">
        <ele>192.77</ele>
        <time>2021-01-14T12:02:18Z</time>
      </trkpt>
      <trkpt lat="43.47118" lon="3.73451">
        <ele>192.84</ele>
        <time>2021-01-14T12:02:19Z</time>
      </trkpt>
      <trkpt lat="43.47106" lon="3.7345">
        <ele>192.52</ele>
        <time>2021-01-14T12:02:30Z</time>
      </trkpt>
      <trkpt lat="43.47088" lon="3.73448">
        <ele>190.2</ele>
        <time>2021-01-14T12:02:46Z</time>
      </trkpt>
      <trkpt lat="43.4707" lon="3.73447">
        <ele>188.97</ele>
        <time>2021-01-14T12:03:02Z</time>
      </trkpt>
      <trkpt lat="43.47061" lon="3.73447">
        <ele>188.23</ele>
        <time>2021-01-14T12:03:11Z</time>
      </trkpt>
      <trkpt lat="43.47045" lon="3.73444">
        <ele>185.93</ele>
        <time>2021-01-14T12:03:25Z</time>
      </trkpt>
      <trkpt lat="43.47026" lon="3.7344">
        <ele>184.13</ele>
        <time>2021-01-14T12:03:41Z</time>
      </trkpt>
      <trkpt lat="43.47009" lon="3.73432">
        <ele>182.89</ele>
        <time>2021-01-14T12:03:57Z</time>
      </trkpt>
      <trkpt lat="43.46994" lon="3.73419">
        <ele>181.37</ele>
        <time>2021-01-14T12:04:14Z</time>
      </trkpt>
      <trkpt lat="43.46991" lon="3.73416">
        <ele>182.39</ele>
        <time>2021-01-14T12:04:27Z</time>
      </trkpt>
      <trkpt lat="43.46984" lon="3.73403">
        <ele>180.23</ele>
        <time>2021-01-14T12:04:40Z</time>
      </trkpt>
      <trkpt lat="43.46981" lon="3.73395">
        <ele>179.46</ele>
        <time>2021-01-14T12:04:45Z</time>
      </trkpt>
      <trkpt lat="43.46969" lon="3.73376">
        <ele>179.22</ele>
        <time>2021-01-14T12:05:01Z</time>
      </trkpt>
      <trkpt lat="43.46958" lon="3.73361">
        <ele>178.3</ele>
        <time>2021-01-14T12:05:16Z</time>
      </trkpt>
      <trkpt lat="43.46947" lon="3.7335">
        <ele>177.43</ele>
        <time>2021-01-14T12:05:29Z</time>
      </trkpt>
      <trkpt lat="43.4693" lon="3.73332">
        <ele>176.07</ele>
        <time>2021-01-14T12:05:47Z</time>
      </trkpt>
      <trkpt lat="43.46919" lon="3.7332">
        <ele>174.08</ele>
        <time>2021-01-14T12:06:00Z</time>
      </trkpt>
      <trkpt lat="43.46917" lon="3.73313">
        <ele>173.78</ele>
        <time>2021-01-14T12:06:04Z</time>
      </trkpt>
      <trkpt lat="43.46915" lon="3.73292">
        <ele>173.71</ele>
        <time>2021-01-14T12:06:18Z</time>
      </trkpt>
      <trkpt lat="43.46915" lon="3.73285">
        <ele>173.01</ele>
        <time>2021-01-14T12:06:22Z</time>
      </trkpt>
      <trkpt lat="43.46914" lon="3.73276">
        <ele>172.24</ele>
        <time>2021-01-14T12:06:28Z</time>
      </trkpt>
      <trkpt lat="43.46914" lon="3.73251">
        <ele>171.18</ele>
        <time>2021-01-14T12:06:45Z</time>
      </trkpt>
      <trkpt lat="43.46915" lon="3.73244">
        <ele>170.77</ele>
        <time>2021-01-14T12:06:49Z</time>
      </trkpt>
      <trkpt lat="43.46914" lon="3.73227">
        <ele>170.56</ele>
        <time>2021-01-14T12:07:00Z</time>
      </trkpt>
      <trkpt lat="43.46917" lon="3.73193">
        <ele>170.52</ele>
        <time>2021-01-14T12:07:20Z</time>
      </trkpt>
      <trkpt lat="43.46908" lon="3.73172">
        <ele>170.06</ele>
        <time>2021-01-14T12:07:36Z</time>
      </trkpt>
      <trkpt lat="43.46896" lon="3.73155">
        <ele>169.62</ele>
        <time>2021-01-14T12:07:50Z</time>
      </trkpt>
      <trkpt lat="43.4688" lon="3.73138">
        <ele>166.98</ele>
        <time>2021-01-14T12:08:07Z</time>
      </trkpt>
      <trkpt lat="43.46872" lon="3.73121">
        <ele>164.65</ele>
        <time>2021-01-14T12:08:22Z</time>
      </trkpt>
      <trkpt lat="43.4687" lon="3.73095">
        <ele>164.15</ele>
        <time>2021-01-14T12:08:40Z</time>
      </trkpt>
      <trkpt lat="43.46872" lon="3.73074">
        <ele>164.01</ele>
        <time>2021-01-14T12:08:55Z</time>
      </trkpt>
      <trkpt lat="43.46875" lon="3.73043">
        <ele>162.57</ele>
        <time>2021-01-14T12:09:15Z</time>
      </trkpt>
      <trkpt lat="43.46879" lon="3.73016">
        <ele>161.84</ele>
        <time>2021-01-14T12:09:33Z</time>
      </trkpt>
      <trkpt lat="43.46882" lon="3.73003">
        <ele>160.87</ele>
        <time>2021-01-14T12:09:42Z</time>
      </trkpt>
      <trkpt lat="43.46887" lon="3.7298">
        <ele>159.79</ele>
        <time>2021-01-14T12:09:57Z</time>
      </trkpt>
      <trkpt lat="43.46897" lon="3.72957">
        <ele>158.78</ele>
        <time>2021-01-14T12:10:14Z</time>
      </trkpt>
      <trkpt lat="43.46916" lon="3.72946">
        <ele>157.39</ele>
        <time>2021-01-14T12:10:33Z</time>
      </trkpt>
      <trkpt lat="43.46925" lon="3.72942">
        <ele>156.23</ele>
        <time>2021-01-14T12:10:42Z</time>
      </trkpt>
      <trkpt lat="43.4694" lon="3.72936">
        <ele>155.92</ele>
        <time>2021-01-14T12:10:56Z</time>
      </trkpt>
      <trkpt lat="43.46955" lon="3.72932">
        <ele>155.45</ele>
        <time>2021-01-14T12:11:09Z</time>
      </trkpt>
      <trkpt lat="43.46959" lon="3.7293">
        <ele>155.16</ele>
        <time>2021-01-14T12:11:12Z</time>
      </trkpt>
      <trkpt lat="43.46966" lon="3.7293">
        <ele>154.88</ele>
        <time>2021-01-14T12:11:17Z</time>
      </trkpt>
      <trkpt lat="43.46981" lon="3.72926">
        <ele>154.78</ele>
        <time>2021-01-14T12:11:30Z</time>
      </trkpt>
      <trkpt lat="43.46998" lon="3.72921">
        <ele>153.9</ele>
        <time>2021-01-14T12:11:46Z</time>
      </trkpt>
      <trkpt lat="43.47016" lon="3.72919">
        <ele>152.32</ele>
        <time>2021-01-14T12:12:00Z</time>
      </trkpt>
      <trkpt lat="43.47031" lon="3.72913">
        <ele>152.34</ele>
        <time>2021-01-14T12:12:12Z</time>
      </trkpt>
      <trkpt lat="43.47038" lon="3.7291">
        <ele>153.44</ele>
        <time>2021-01-14T12:12:18Z</time>
      </trkpt>
      <trkpt lat="43.47045" lon="3.72904">
        <ele>154.44</ele>
        <time>2021-01-14T12:12:24Z</time>
      </trkpt>
      <trkpt lat="43.47058" lon="3.72879">
        <ele>155.74</ele>
        <time>2021-01-14T12:12:42Z</time>
      </trkpt>
      <trkpt lat="43.47067" lon="3.72855">
        <ele>155.1</ele>
        <time>2021-01-14T12:13:00Z</time>
      </trkpt>
      <trkpt lat="43.47076" lon="3.72843">
        <ele>155.67</ele>
        <time>2021-01-14T12:13:16Z</time>
      </trkpt>
      <trkpt lat="43.4708" lon="3.72836">
        <ele>156.54</ele>
        <time>2021-01-14T12:13:35Z</time>
      </trkpt>
      <trkpt lat="43.47079" lon="3.72836">
        <ele>159.74</ele>
        <time>2021-01-14T12:13:47Z</time>
      </trkpt>
      <trkpt lat="43.4708" lon="3.72836">
        <ele>156.44</ele>
        <time>2021-01-14T12:14:01Z</time>
      </trkpt>
      <trkpt lat="43.4708" lon="3.72835">
        <ele>158.31</ele>
        <time>2021-01-14T12:14:24Z</time>
      </trkpt>
      <trkpt lat="43.47084" lon="3.72829">
        <ele>159.61</ele>
        <time>2021-01-14T12:14:46Z</time>
      </trkpt>
      <trkpt lat="43.47083" lon="3.7283">
        <ele>162.61</ele>
        <time>2021-01-14T12:15:00Z</time>
      </trkpt>
      <trkpt lat="43.47083" lon="3.72831">
        <ele>161.37</ele>
        <time>2021-01-14T12:15:23Z</time>
      </trkpt>
      <trkpt lat="43.47082" lon="3.72837">
        <ele>160.65</ele>
        <time>2021-01-14T12:15:41Z</time>
      </trkpt>
      <trkpt lat="43.4708" lon="3.72843">
        <ele>158.75</ele>
        <time>2021-01-14T12:15:55Z</time>
      </trkpt>
      <trkpt lat="43.47081" lon="3.72842">
        <ele>156.72</ele>
        <time>2021-01-14T12:16:16Z</time>
      </trkpt>
      <trkpt lat="43.47081" lon="3.72843">
        <ele>155.89</ele>
        <time>2021-01-14T12:16:48Z</time>
      </trkpt>
      <trkpt lat="43.47081" lon="3.72842">
        <ele>157.34</ele>
        <time>2021-01-14T12:17:17Z</time>
      </trkpt>
      <trkpt lat="43.47079" lon="3.72842">
        <ele>157.39</ele>
        <time>2021-01-14T12:17:43Z</time>
      </trkpt>
      <trkpt lat="43.47079" lon="3.72843">
        <ele>157.74</ele>
        <time>2021-01-14T12:18:14Z</time>
      </trkpt>
      <trkpt lat="43.47079" lon="3.72844">
        <ele>157.97</ele>
        <time>2021-01-14T12:18:47Z</time>
      </trkpt>
      <trkpt lat="43.4708" lon="3.72842">
        <ele>157.22</ele>
        <time>2021-01-14T12:19:14Z</time>
      </trkpt>
      <trkpt lat="43.47082" lon="3.72839">
        <ele>156.85</ele>
        <time>2021-01-14T12:19:35Z</time>
      </trkpt>
      <trkpt lat="43.47079" lon="3.72825">
        <ele>159.11</ele>
        <time>2021-01-14T12:19:50Z</time>
      </trkpt>
      <trkpt lat="43.47078" lon="3.72821">
        <ele>157.32</ele>
        <time>2021-01-14T12:19:55Z</time>
      </trkpt>
      <trkpt lat="43.47077" lon="3.72816">
        <ele>157.1</ele>
        <time>2021-01-14T12:19:58Z</time>
      </trkpt>
      <trkpt lat="43.47076" lon="3.72797">
        <ele>159.59</ele>
        <time>2021-01-14T12:20:11Z</time>
      </trkpt>
      <trkpt lat="43.47073" lon="3.72778">
        <ele>161.95</ele>
        <time>2021-01-14T12:20:27Z</time>
      </trkpt>
      <trkpt lat="43.47065" lon="3.72764">
        <ele>163.99</ele>
        <time>2021-01-14T12:20:42Z</time>
      </trkpt>
      <trkpt lat="43.47063" lon="3.72751">
        <ele>167.01</ele>
        <time>2021-01-14T12:20:57Z</time>
      </trkpt>
      <trkpt lat="43.47061" lon="3.72737">
        <ele>169.11</ele>
        <time>2021-01-14T12:21:16Z</time>
      </trkpt>
      <trkpt lat="43.47056" lon="3.72722">
        <ele>172.44</ele>
        <time>2021-01-14T12:21:33Z</time>
      </trkpt>
      <trkpt lat="43.47053" lon="3.72708">
        <ele>175.46</ele>
        <time>2021-01-14T12:21:47Z</time>
      </trkpt>
      <trkpt lat="43.4705" lon="3.72697">
        <ele>178.59</ele>
        <time>2021-01-14T12:22:02Z</time>
      </trkpt>
      <trkpt lat="43.47043" lon="3.7268">
        <ele>181.66</ele>
        <time>2021-01-14T12:22:21Z</time>
      </trkpt>
      <trkpt lat="43.47028" lon="3.72664">
        <ele>184.59</ele>
        <time>2021-01-14T12:22:42Z</time>
      </trkpt>
      <trkpt lat="43.47022" lon="3.72659">
        <ele>185.11</ele>
        <time>2021-01-14T12:22:49Z</time>
      </trkpt>
      <trkpt lat="43.47005" lon="3.72648">
        <ele>185.41</ele>
        <time>2021-01-14T12:23:07Z</time>
      </trkpt>
      <trkpt lat="43.46993" lon="3.72627">
        <ele>188.27</ele>
        <time>2021-01-14T12:23:31Z</time>
      </trkpt>
      <trkpt lat="43.46983" lon="3.72609">
        <ele>190.84</ele>
        <time>2021-01-14T12:23:51Z</time>
      </trkpt>
      <trkpt lat="43.46974" lon="3.72605">
        <ele>191.84</ele>
        <time>2021-01-14T12:24:05Z</time>
      </trkpt>
      <trkpt lat="43.46961" lon="3.72602">
        <ele>193.08</ele>
        <time>2021-01-14T12:24:19Z</time>
      </trkpt>
      <trkpt lat="43.46946" lon="3.72597">
        <ele>195.58</ele>
        <time>2021-01-14T12:24:37Z</time>
      </trkpt>
      <trkpt lat="43.46928" lon="3.72592">
        <ele>197.43</ele>
        <time>2021-01-14T12:24:59Z</time>
      </trkpt>
      <trkpt lat="43.46906" lon="3.72587">
        <ele>198.49</ele>
        <time>2021-01-14T12:25:22Z</time>
      </trkpt>
      <trkpt lat="43.46893" lon="3.72582">
        <ele>199.8</ele>
        <time>2021-01-14T12:25:36Z</time>
      </trkpt>
      <trkpt lat="43.46876" lon="3.72581">
        <ele>201.49</ele>
        <time>2021-01-14T12:25:54Z</time>
      </trkpt>
      <trkpt lat="43.46859" lon="3.72581">
        <ele>201.61</ele>
        <time>2021-01-14T12:26:12Z</time>
      </trkpt>
      <trkpt lat="43.46841" lon="3.72582">
        <ele>201.93</ele>
        <time>2021-01-14T12:26:32Z</time>
      </trkpt>
      <trkpt lat="43.46824" lon="3.72579">
        <ele>203.47</ele>
        <time>2021-01-14T12:26:51Z</time>
      </trkpt>
      <trkpt lat="43.46805" lon="3.72581">
        <ele>205.16</ele>
        <time>2021-01-14T12:27:11Z</time>
      </trkpt>
      <trkpt lat="43.46792" lon="3.72577">
        <ele>206.72</ele>
        <time>2021-01-14T12:27:31Z</time>
      </trkpt>
      <trkpt lat="43.46776" lon="3.72574">
        <ele>209.75</ele>
        <time>2021-01-14T12:27:50Z</time>
      </trkpt>
      <trkpt lat="43.46761" lon="3.72565">
        <ele>212.21</ele>
        <time>2021-01-14T12:28:08Z</time>
      </trkpt>
      <trkpt lat="43.46747" lon="3.72552">
        <ele>215.01</ele>
        <time>2021-01-14T12:28:25Z</time>
      </trkpt>
      <trkpt lat="43.46738" lon="3.72538">
        <ele>216.96</ele>
        <time>2021-01-14T12:28:40Z</time>
      </trkpt>
      <trkpt lat="43.46735" lon="3.72522">
        <ele>218.29</ele>
        <time>2021-01-14T12:28:56Z</time>
      </trkpt>
      <trkpt lat="43.46735" lon="3.72505">
        <ele>217.93</ele>
        <time>2021-01-14T12:29:16Z</time>
      </trkpt>
      <trkpt lat="43.46735" lon="3.72498">
        <ele>218.39</ele>
        <time>2021-01-14T12:29:39Z</time>
      </trkpt>
      <trkpt lat="43.46734" lon="3.72497">
        <ele>218.64</ele>
        <time>2021-01-14T12:30:06Z</time>
      </trkpt>
      <trkpt lat="43.46734" lon="3.72496">
        <ele>219.05</ele>
        <time>2021-01-14T12:30:37Z</time>
      </trkpt>
      <trkpt lat="43.46734" lon="3.72501">
        <ele>218.19</ele>
        <time>2021-01-14T12:30:59Z</time>
      </trkpt>
      <trkpt lat="43.46735" lon="3.72507">
        <ele>218.88</ele>
        <time>2021-01-14T12:31:16Z</time>
      </trkpt>
      <trkpt lat="43.46735" lon="3.72512">
        <ele>219.28</ele>
        <time>2021-01-14T12:31:34Z</time>
      </trkpt>
      <trkpt lat="43.46736" lon="3.7252">
        <ele>218.17</ele>
        <time>2021-01-14T12:31:51Z</time>
      </trkpt>
      <trkpt lat="43.46738" lon="3.72529">
        <ele>218.32</ele>
        <time>2021-01-14T12:32:06Z</time>
      </trkpt>
      <trkpt lat="43.46734" lon="3.72536">
        <ele>215.74</ele>
        <time>2021-01-14T12:32:25Z</time>
      </trkpt>
      <trkpt lat="43.46727" lon="3.72534">
        <ele>215.58</ele>
        <time>2021-01-14T12:32:42Z</time>
      </trkpt>
      <trkpt lat="43.46718" lon="3.72529">
        <ele>215.77</ele>
        <time>2021-01-14T12:32:53Z</time>
      </trkpt>
      <trkpt lat="43.46704" lon="3.72527">
        <ele>215.02</ele>
        <time>2021-01-14T12:33:11Z</time>
      </trkpt>
      <trkpt lat="43.46698" lon="3.72528">
        <ele>215.1</ele>
        <time>2021-01-14T12:33:18Z</time>
      </trkpt>
      <trkpt lat="43.46694" lon="3.72533">
        <ele>214.7</ele>
        <time>2021-01-14T12:33:24Z</time>
      </trkpt>
      <trkpt lat="43.46686" lon="3.7254">
        <ele>214.96</ele>
        <time>2021-01-14T12:33:39Z</time>
      </trkpt>
      <trkpt lat="43.4669" lon="3.72533">
        <ele>214.96</ele>
        <time>2021-01-14T12:33:51Z</time>
      </trkpt>
      <trkpt lat="43.46695" lon="3.72528">
        <ele>214.37</ele>
        <time>2021-01-14T12:34:10Z</time>
      </trkpt>
      <trkpt lat="43.46692" lon="3.72523">
        <ele>214.44</ele>
        <time>2021-01-14T12:34:29Z</time>
      </trkpt>
      <trkpt lat="43.46678" lon="3.72515">
        <ele>213.99</ele>
        <time>2021-01-14T12:34:46Z</time>
      </trkpt>
      <trkpt lat="43.46663" lon="3.72509">
        <ele>211.64</ele>
        <time>2021-01-14T12:35:04Z</time>
      </trkpt>
      <trkpt lat="43.46649" lon="3.72502">
        <ele>210.42</ele>
        <time>2021-01-14T12:35:17Z</time>
      </trkpt>
      <trkpt lat="43.46636" lon="3.72491">
        <ele>208.46</ele>
        <time>2021-01-14T12:35:33Z</time>
      </trkpt>
      <trkpt lat="43.46634" lon="3.7249">
        <ele>208.36</ele>
        <time>2021-01-14T12:35:35Z</time>
      </trkpt>
      <trkpt lat="43.46622" lon="3.72485">
        <ele>207.96</ele>
        <time>2021-01-14T12:35:51Z</time>
      </trkpt>
      <trkpt lat="43.4662" lon="3.72485">
        <ele>207.64</ele>
        <time>2021-01-14T12:35:53Z</time>
      </trkpt>
      <trkpt lat="43.46614" lon="3.7248">
        <ele>206.67</ele>
        <time>2021-01-14T12:36:00Z</time>
      </trkpt>
      <trkpt lat="43.46609" lon="3.72479">
        <ele>206.33</ele>
        <time>2021-01-14T12:36:04Z</time>
      </trkpt>
      <trkpt lat="43.46596" lon="3.72475">
        <ele>205.64</ele>
        <time>2021-01-14T12:36:16Z</time>
      </trkpt>
      <trkpt lat="43.46586" lon="3.72471">
        <ele>205.24</ele>
        <time>2021-01-14T12:36:25Z</time>
      </trkpt>
      <trkpt lat="43.46574" lon="3.72456">
        <ele>205.62</ele>
        <time>2021-01-14T12:36:40Z</time>
      </trkpt>
      <trkpt lat="43.46567" lon="3.72452">
        <ele>206.13</ele>
        <time>2021-01-14T12:36:48Z</time>
      </trkpt>
      <trkpt lat="43.46565" lon="3.72449">
        <ele>206.34</ele>
        <time>2021-01-14T12:36:51Z</time>
      </trkpt>
      <trkpt lat="43.4656" lon="3.72447">
        <ele>206.6</ele>
        <time>2021-01-14T12:36:56Z</time>
      </trkpt>
      <trkpt lat="43.46546" lon="3.72436">
        <ele>207.64</ele>
        <time>2021-01-14T12:37:10Z</time>
      </trkpt>
      <trkpt lat="43.46542" lon="3.72434">
        <ele>207.88</ele>
        <time>2021-01-14T12:37:13Z</time>
      </trkpt>
      <trkpt lat="43.46534" lon="3.72431">
        <ele>208.33</ele>
        <time>2021-01-14T12:37:21Z</time>
      </trkpt>
      <trkpt lat="43.46529" lon="3.72429">
        <ele>208.4</ele>
        <time>2021-01-14T12:37:25Z</time>
      </trkpt>
      <trkpt lat="43.46527" lon="3.72427">
        <ele>208.41</ele>
        <time>2021-01-14T12:37:27Z</time>
      </trkpt>
      <trkpt lat="43.46512" lon="3.72418">
        <ele>206.97</ele>
        <time>2021-01-14T12:37:44Z</time>
      </trkpt>
      <trkpt lat="43.46509" lon="3.72418">
        <ele>206.64</ele>
        <time>2021-01-14T12:37:47Z</time>
      </trkpt>
      <trkpt lat="43.46501" lon="3.72409">
        <ele>205.05</ele>
        <time>2021-01-14T12:38:03Z</time>
      </trkpt>
      <trkpt lat="43.46499" lon="3.72403">
        <ele>205.01</ele>
        <time>2021-01-14T12:38:18Z</time>
      </trkpt>
      <trkpt lat="43.46498" lon="3.72401">
        <ele>205.12</ele>
        <time>2021-01-14T12:38:43Z</time>
      </trkpt>
      <trkpt lat="43.46498" lon="3.72399">
        <ele>205.56</ele>
        <time>2021-01-14T12:39:01Z</time>
      </trkpt>
      <trkpt lat="43.46497" lon="3.72396">
        <ele>205.35</ele>
        <time>2021-01-14T12:39:04Z</time>
      </trkpt>
      <trkpt lat="43.46487" lon="3.7238">
        <ele>202.4</ele>
        <time>2021-01-14T12:39:19Z</time>
      </trkpt>
      <trkpt lat="43.46483" lon="3.72366">
        <ele>200.36</ele>
        <time>2021-01-14T12:39:36Z</time>
      </trkpt>
      <trkpt lat="43.46481" lon="3.7236">
        <ele>198.35</ele>
        <time>2021-01-14T12:39:52Z</time>
      </trkpt>
      <trkpt lat="43.4648" lon="3.72353">
        <ele>198.19</ele>
        <time>2021-01-14T12:40:05Z</time>
      </trkpt>
      <trkpt lat="43.46478" lon="3.7235">
        <ele>197.94</ele>
        <time>2021-01-14T12:40:08Z</time>
      </trkpt>
      <trkpt lat="43.46469" lon="3.7233">
        <ele>194.84</ele>
        <time>2021-01-14T12:40:23Z</time>
      </trkpt>
      <trkpt lat="43.46461" lon="3.72313">
        <ele>191.59</ele>
        <time>2021-01-14T12:40:36Z</time>
      </trkpt>
      <trkpt lat="43.46455" lon="3.72294">
        <ele>188.35</ele>
        <time>2021-01-14T12:40:48Z</time>
      </trkpt>
      <trkpt lat="43.46449" lon="3.72269">
        <ele>185.32</ele>
        <time>2021-01-14T12:41:04Z</time>
      </trkpt>
      <trkpt lat="43.46448" lon="3.72247">
        <ele>183.34</ele>
        <time>2021-01-14T12:41:17Z</time>
      </trkpt>
      <trkpt lat="43.46457" lon="3.72243">
        <ele>184.19</ele>
        <time>2021-01-14T12:41:26Z</time>
      </trkpt>
      <trkpt lat="43.46467" lon="3.72247">
        <ele>185.32</ele>
        <time>2021-01-14T12:41:35Z</time>
      </trkpt>
      <trkpt lat="43.46473" lon="3.72249">
        <ele>186.52</ele>
        <time>2021-01-14T12:41:45Z</time>
      </trkpt>
      <trkpt lat="43.46458" lon="3.72245">
        <ele>185.99</ele>
        <time>2021-01-14T12:42:01Z</time>
      </trkpt>
      <trkpt lat="43.46454" lon="3.72245">
        <ele>185.39</ele>
        <time>2021-01-14T12:42:05Z</time>
      </trkpt>
      <trkpt lat="43.46451" lon="3.72246">
        <ele>184.76</ele>
        <time>2021-01-14T12:42:08Z</time>
      </trkpt>
      <trkpt lat="43.46448" lon="3.72243">
        <ele>184.18</ele>
        <time>2021-01-14T12:42:11Z</time>
      </trkpt>
      <trkpt lat="43.46444" lon="3.72232">
        <ele>183.04</ele>
        <time>2021-01-14T12:42:19Z</time>
      </trkpt>
      <trkpt lat="43.46437" lon="3.72219">
        <ele>182.59</ele>
        <time>2021-01-14T12:42:29Z</time>
      </trkpt>
      <trkpt lat="43.46421" lon="3.72202">
        <ele>181.32</ele>
        <time>2021-01-14T12:42:48Z</time>
      </trkpt>
      <trkpt lat="43.46406" lon="3.72185">
        <ele>179.92</ele>
        <time>2021-01-14T12:43:05Z</time>
      </trkpt>
      <trkpt lat="43.46397" lon="3.72173">
        <ele>179.21</ele>
        <time>2021-01-14T12:43:20Z</time>
      </trkpt>
      <trkpt lat="43.46382" lon="3.72163">
        <ele>178.16</ele>
        <time>2021-01-14T12:43:36Z</time>
      </trkpt>
      <trkpt lat="43.46371" lon="3.72153">
        <ele>176.97</ele>
        <time>2021-01-14T12:43:52Z</time>
      </trkpt>
      <trkpt lat="43.46364" lon="3.72148">
        <ele>175.34</ele>
        <time>2021-01-14T12:44:10Z</time>
      </trkpt>
      <trkpt lat="43.46362" lon="3.72146">
        <ele>174.97</ele>
        <time>2021-01-14T12:44:14Z</time>
      </trkpt>
      <trkpt lat="43.46353" lon="3.72135">
        <ele>172.02</ele>
        <time>2021-01-14T12:44:30Z</time>
      </trkpt>
      <trkpt lat="43.46348" lon="3.72128">
        <ele>169.85</ele>
        <time>2021-01-14T12:44:42Z</time>
      </trkpt>
      <trkpt lat="43.4634" lon="3.7212">
        <ele>166.93</ele>
        <time>2021-01-14T12:44:57Z</time>
      </trkpt>
      <trkpt lat="43.46336" lon="3.72113">
        <ele>163.88</ele>
        <time>2021-01-14T12:45:09Z</time>
      </trkpt>
      <trkpt lat="43.46333" lon="3.72105">
        <ele>160.78</ele>
        <time>2021-01-14T12:45:18Z</time>
      </trkpt>
      <trkpt lat="43.4633" lon="3.72099">
        <ele>157.71</ele>
        <time>2021-01-14T12:45:26Z</time>
      </trkpt>
      <trkpt lat="43.46328" lon="3.72097">
        <ele>157.11</ele>
        <time>2021-01-14T12:45:28Z</time>
      </trkpt>
      <trkpt lat="43.46322" lon="3.72092">
        <ele>154.75</ele>
        <time>2021-01-14T12:45:35Z</time>
      </trkpt>
      <trkpt lat="43.46318" lon="3.72089">
        <ele>153.24</ele>
        <time>2021-01-14T12:45:43Z</time>
      </trkpt>
      <trkpt lat="43.4631" lon="3.72078">
        <ele>151.17</ele>
        <time>2021-01-14T12:45:58Z</time>
      </trkpt>
      <trkpt lat="43.46303" lon="3.72072">
        <ele>148.13</ele>
        <time>2021-01-14T12:46:10Z</time>
      </trkpt>
      <trkpt lat="43.46298" lon="3.72063">
        <ele>144.7</ele>
        <time>2021-01-14T12:46:19Z</time>
      </trkpt>
      <trkpt lat="43.46295" lon="3.7206">
        <ele>143.26</ele>
        <time>2021-01-14T12:46:22Z</time>
      </trkpt>
      <trkpt lat="43.46287" lon="3.72051">
        <ele>140</ele>
        <time>2021-01-14T12:46:32Z</time>
      </trkpt>
      <trkpt lat="43.46281" lon="3.72043">
        <ele>137</ele>
        <time>2021-01-14T12:46:43Z</time>
      </trkpt>
      <trkpt lat="43.46279" lon="3.7204">
        <ele>136.11</ele>
        <time>2021-01-14T12:46:46Z</time>
      </trkpt>
      <trkpt lat="43.46276" lon="3.72035">
        <ele>134.24</ele>
        <time>2021-01-14T12:46:51Z</time>
      </trkpt>
      <trkpt lat="43.46265" lon="3.7202">
        <ele>130.91</ele>
        <time>2021-01-14T12:47:04Z</time>
      </trkpt>
      <trkpt lat="43.46256" lon="3.72009">
        <ele>128.01</ele>
        <time>2021-01-14T12:47:16Z</time>
      </trkpt>
      <trkpt lat="43.46244" lon="3.71995">
        <ele>124.57</ele>
        <time>2021-01-14T12:47:31Z</time>
      </trkpt>
      <trkpt lat="43.46237" lon="3.71984">
        <ele>121.25</ele>
        <time>2021-01-14T12:47:41Z</time>
      </trkpt>
      <trkpt lat="43.46234" lon="3.71975">
        <ele>120.16</ele>
        <time>2021-01-14T12:47:56Z</time>
      </trkpt>
      <trkpt lat="43.46235" lon="3.71974">
        <ele>120.85</ele>
        <time>2021-01-14T12:48:30Z</time>
      </trkpt>
      <trkpt lat="43.46235" lon="3.71976">
        <ele>120.58</ele>
        <time>2021-01-14T12:49:00Z</time>
      </trkpt>
      <trkpt lat="43.46237" lon="3.71975">
        <ele>120.63</ele>
        <time>2021-01-14T12:49:27Z</time>
      </trkpt>
      <trkpt lat="43.46237" lon="3.71973">
        <ele>120.21</ele>
        <time>2021-01-14T12:49:59Z</time>
      </trkpt>
      <trkpt lat="43.46235" lon="3.71974">
        <ele>120.26</ele>
        <time>2021-01-14T12:50:27Z</time>
      </trkpt>
      <trkpt lat="43.46235" lon="3.71974">
        <ele>120.79</ele>
        <time>2021-01-14T12:50:55Z</time>
      </trkpt>
      <trkpt lat="43.46236" lon="3.71974">
        <ele>120.95</ele>
        <time>2021-01-14T12:51:27Z</time>
      </trkpt>
      <trkpt lat="43.46236" lon="3.71973">
        <ele>120.72</ele>
        <time>2021-01-14T12:51:49Z</time>
      </trkpt>
      <trkpt lat="43.46238" lon="3.71971">
        <ele>120.88</ele>
        <time>2021-01-14T12:52:10Z</time>
      </trkpt>
      <trkpt lat="43.46239" lon="3.71971">
        <ele>121.15</ele>
        <time>2021-01-14T12:52:43Z</time>
      </trkpt>
      <trkpt lat="43.46241" lon="3.71968">
        <ele>120.84</ele>
        <time>2021-01-14T12:53:08Z</time>
      </trkpt>
      <trkpt lat="43.46245" lon="3.71957">
        <ele>117.83</ele>
        <time>2021-01-14T12:53:18Z</time>
      </trkpt>
      <trkpt lat="43.46251" lon="3.7194">
        <ele>115.94</ele>
        <time>2021-01-14T12:53:33Z</time>
      </trkpt>
      <trkpt lat="43.46262" lon="3.71931">
        <ele>115.64</ele>
        <time>2021-01-14T12:53:46Z</time>
      </trkpt>
      <trkpt lat="43.46265" lon="3.71929">
        <ele>116.4</ele>
        <time>2021-01-14T12:53:49Z</time>
      </trkpt>
      <trkpt lat="43.46284" lon="3.71917">
        <ele>117.57</ele>
        <time>2021-01-14T12:54:07Z</time>
      </trkpt>
      <trkpt lat="43.46286" lon="3.71916">
        <ele>117.72</ele>
        <time>2021-01-14T12:54:09Z</time>
      </trkpt>
      <trkpt lat="43.4629" lon="3.71911">
        <ele>118.52</ele>
        <time>2021-01-14T12:54:14Z</time>
      </trkpt>
      <trkpt lat="43.46308" lon="3.71895">
        <ele>119.16</ele>
        <time>2021-01-14T12:54:31Z</time>
      </trkpt>
      <trkpt lat="43.46331" lon="3.71892">
        <ele>119.11</ele>
        <time>2021-01-14T12:54:50Z</time>
      </trkpt>
      <trkpt lat="43.46349" lon="3.71897">
        <ele>119.33</ele>
        <time>2021-01-14T12:55:06Z</time>
      </trkpt>
      <trkpt lat="43.46355" lon="3.71889">
        <ele>120</ele>
        <time>2021-01-14T12:55:13Z</time>
      </trkpt>
      <trkpt lat="43.46357" lon="3.71884">
        <ele>120.48</ele>
        <time>2021-01-14T12:55:17Z</time>
      </trkpt>
      <trkpt lat="43.46356" lon="3.71877">
        <ele>121.28</ele>
        <time>2021-01-14T12:55:21Z</time>
      </trkpt>
      <trkpt lat="43.46362" lon="3.71852">
        <ele>123.97</ele>
        <time>2021-01-14T12:55:37Z</time>
      </trkpt>
      <trkpt lat="43.46377" lon="3.71832">
        <ele>126</ele>
        <time>2021-01-14T12:55:54Z</time>
      </trkpt>
      <trkpt lat="43.46381" lon="3.71827">
        <ele>125.41</ele>
        <time>2021-01-14T12:55:59Z</time>
      </trkpt>
      <trkpt lat="43.46384" lon="3.71821">
        <ele>125.15</ele>
        <time>2021-01-14T12:56:03Z</time>
      </trkpt>
      <trkpt lat="43.4639" lon="3.71812">
        <ele>128.41</ele>
        <time>2021-01-14T12:56:11Z</time>
      </trkpt>
      <trkpt lat="43.46391" lon="3.7181">
        <ele>128.83</ele>
        <time>2021-01-14T12:56:12Z</time>
      </trkpt>
      <trkpt lat="43.46401" lon="3.718">
        <ele>129.04</ele>
        <time>2021-01-14T12:56:23Z</time>
      </trkpt>
      <trkpt lat="43.46412" lon="3.7179">
        <ele>129.96</ele>
        <time>2021-01-14T12:56:34Z</time>
      </trkpt>
      <trkpt lat="43.46429" lon="3.71777">
        <ele>130.11</ele>
        <time>2021-01-14T12:56:51Z</time>
      </trkpt>
      <trkpt lat="43.46446" lon="3.71776">
        <ele>129.03</ele>
        <time>2021-01-14T12:57:07Z</time>
      </trkpt>
      <trkpt lat="43.46458" lon="3.7178">
        <ele>129.11</ele>
        <time>2021-01-14T12:57:25Z</time>
      </trkpt>
      <trkpt lat="43.46459" lon="3.71781">
        <ele>130.77</ele>
        <time>2021-01-14T12:57:54Z</time>
      </trkpt>
      <trkpt lat="43.46461" lon="3.71781">
        <ele>130.76</ele>
        <time>2021-01-14T12:58:25Z</time>
      </trkpt>
      <trkpt lat="43.46467" lon="3.7178">
        <ele>129.66</ele>
        <time>2021-01-14T12:58:50Z</time>
      </trkpt>
      <trkpt lat="43.4647" lon="3.71781">
        <ele>129.25</ele>
        <time>2021-01-14T12:59:13Z</time>
      </trkpt>
      <trkpt lat="43.46471" lon="3.71783">
        <ele>129.81</ele>
        <time>2021-01-14T12:59:35Z</time>
      </trkpt>
      <trkpt lat="43.46471" lon="3.71782">
        <ele>131.38</ele>
        <time>2021-01-14T13:00:01Z</time>
      </trkpt>
      <trkpt lat="43.46474" lon="3.71786">
        <ele>128.7</ele>
        <time>2021-01-14T13:00:32Z</time>
      </trkpt>
      <trkpt lat="43.46484" lon="3.71787">
        <ele>126.92</ele>
        <time>2021-01-14T13:00:49Z</time>
      </trkpt>
      <trkpt lat="43.46487" lon="3.71786">
        <ele>125.8</ele>
        <time>2021-01-14T13:00:52Z</time>
      </trkpt>
      <trkpt lat="43.46499" lon="3.71785">
        <ele>122.29</ele>
        <time>2021-01-14T13:01:07Z</time>
      </trkpt>
      <trkpt lat="43.46515" lon="3.71783">
        <ele>118.98</ele>
        <time>2021-01-14T13:01:26Z</time>
      </trkpt>
      <trkpt lat="43.46534" lon="3.71767">
        <ele>116.45</ele>
        <time>2021-01-14T13:01:51Z</time>
      </trkpt>
      <trkpt lat="43.46545" lon="3.71746">
        <ele>114.87</ele>
        <time>2021-01-14T13:02:08Z</time>
      </trkpt>
      <trkpt lat="43.46552" lon="3.71739">
        <ele>114.22</ele>
        <time>2021-01-14T13:02:17Z</time>
      </trkpt>
      <trkpt lat="43.4656" lon="3.7173">
        <ele>111.12</ele>
        <time>2021-01-14T13:02:29Z</time>
      </trkpt>
      <trkpt lat="43.46569" lon="3.71725">
        <ele>108.04</ele>
        <time>2021-01-14T13:02:43Z</time>
      </trkpt>
      <trkpt lat="43.46577" lon="3.71718">
        <ele>104.91</ele>
        <time>2021-01-14T13:02:56Z</time>
      </trkpt>
      <trkpt lat="43.46585" lon="3.71711">
        <ele>101.82</ele>
        <time>2021-01-14T13:03:12Z</time>
      </trkpt>
      <trkpt lat="43.46593" lon="3.71704">
        <ele>100.18</ele>
        <time>2021-01-14T13:03:22Z</time>
      </trkpt>
      <trkpt lat="43.46608" lon="3.71689">
        <ele>97.7</ele>
        <time>2021-01-14T13:03:40Z</time>
      </trkpt>
      <trkpt lat="43.46612" lon="3.71686">
        <ele>97.21</ele>
        <time>2021-01-14T13:03:45Z</time>
      </trkpt>
      <trkpt lat="43.46625" lon="3.7168">
        <ele>94.69</ele>
        <time>2021-01-14T13:04:01Z</time>
      </trkpt>
      <trkpt lat="43.46642" lon="3.71666">
        <ele>91.62</ele>
        <time>2021-01-14T13:04:19Z</time>
      </trkpt>
      <trkpt lat="43.46657" lon="3.71653">
        <ele>90.1</ele>
        <time>2021-01-14T13:04:38Z</time>
      </trkpt>
      <trkpt lat="43.4666" lon="3.71647">
        <ele>90.05</ele>
        <time>2021-01-14T13:04:42Z</time>
      </trkpt>
      <trkpt lat="43.46665" lon="3.71628">
        <ele>89.34</ele>
        <time>2021-01-14T13:04:58Z</time>
      </trkpt>
      <trkpt lat="43.46684" lon="3.71614">
        <ele>86.77</ele>
        <time>2021-01-14T13:05:20Z</time>
      </trkpt>
      <trkpt lat="43.46686" lon="3.7161">
        <ele>86.49</ele>
        <time>2021-01-14T13:05:23Z</time>
      </trkpt>
      <trkpt lat="43.46699" lon="3.71588">
        <ele>83.24</ele>
        <time>2021-01-14T13:05:41Z</time>
      </trkpt>
      <trkpt lat="43.46704" lon="3.71588">
        <ele>83.43</ele>
        <time>2021-01-14T13:05:58Z</time>
      </trkpt>
      <trkpt lat="43.46707" lon="3.71588">
        <ele>83.2</ele>
        <time>2021-01-14T13:06:32Z</time>
      </trkpt>
      <trkpt lat="43.46708" lon="3.7159">
        <ele>83.61</ele>
        <time>2021-01-14T13:07:00Z</time>
      </trkpt>
      <trkpt lat="43.46708" lon="3.71578">
        <ele>82.28</ele>
        <time>2021-01-14T13:07:27Z</time>
      </trkpt>
      <trkpt lat="43.46708" lon="3.71571">
        <ele>82.32</ele>
        <time>2021-01-14T13:07:31Z</time>
      </trkpt>
      <trkpt lat="43.4672" lon="3.71557">
        <ele>82.04</ele>
        <time>2021-01-14T13:07:52Z</time>
      </trkpt>
      <trkpt lat="43.46732" lon="3.71567">
        <ele>85.1</ele>
        <time>2021-01-14T13:08:11Z</time>
      </trkpt>
      <trkpt lat="43.46747" lon="3.71576">
        <ele>88.16</ele>
        <time>2021-01-14T13:08:34Z</time>
      </trkpt>
      <trkpt lat="43.46756" lon="3.71584">
        <ele>88.15</ele>
        <time>2021-01-14T13:08:59Z</time>
      </trkpt>
      <trkpt lat="43.4676" lon="3.71586">
        <ele>88.54</ele>
        <time>2021-01-14T13:09:04Z</time>
      </trkpt>
      <trkpt lat="43.4677" lon="3.7159">
        <ele>88.04</ele>
        <time>2021-01-14T13:09:15Z</time>
      </trkpt>
      <trkpt lat="43.46772" lon="3.71592">
        <ele>88.35</ele>
        <time>2021-01-14T13:09:17Z</time>
      </trkpt>
      <trkpt lat="43.46787" lon="3.71599">
        <ele>91.61</ele>
        <time>2021-01-14T13:09:32Z</time>
      </trkpt>
      <trkpt lat="43.46805" lon="3.71607">
        <ele>92.17</ele>
        <time>2021-01-14T13:09:51Z</time>
      </trkpt>
      <trkpt lat="43.46821" lon="3.71612">
        <ele>94.17</ele>
        <time>2021-01-14T13:10:07Z</time>
      </trkpt>
      <trkpt lat="43.46837" lon="3.71614">
        <ele>95.66</ele>
        <time>2021-01-14T13:10:23Z</time>
      </trkpt>
      <trkpt lat="43.46854" lon="3.71617">
        <ele>95.65</ele>
        <time>2021-01-14T13:10:40Z</time>
      </trkpt>
      <trkpt lat="43.46876" lon="3.71621">
        <ele>97.82</ele>
        <time>2021-01-14T13:11:00Z</time>
      </trkpt>
      <trkpt lat="43.46893" lon="3.71624">
        <ele>98.84</ele>
        <time>2021-01-14T13:11:17Z</time>
      </trkpt>
      <trkpt lat="43.46897" lon="3.71625">
        <ele>99.14</ele>
        <time>2021-01-14T13:11:21Z</time>
      </trkpt>
      <trkpt lat="43.46901" lon="3.71626">
        <ele>99.71</ele>
        <time>2021-01-14T13:11:25Z</time>
      </trkpt>
      <trkpt lat="43.46913" lon="3.71629">
        <ele>100.71</ele>
        <time>2021-01-14T13:11:37Z</time>
      </trkpt>
      <trkpt lat="43.4693" lon="3.71632">
        <ele>100.98</ele>
        <time>2021-01-14T13:11:54Z</time>
      </trkpt>
      <trkpt lat="43.46936" lon="3.71633">
        <ele>101.52</ele>
        <time>2021-01-14T13:12:00Z</time>
      </trkpt>
      <trkpt lat="43.46953" lon="3.71638">
        <ele>101.3</ele>
        <time>2021-01-14T13:12:17Z</time>
      </trkpt>
      <trkpt lat="43.46963" lon="3.71639">
        <ele>102.94</ele>
        <time>2021-01-14T13:12:25Z</time>
      </trkpt>
      <trkpt lat="43.46966" lon="3.7164">
        <ele>103.64</ele>
        <time>2021-01-14T13:12:28Z</time>
      </trkpt>
      <trkpt lat="43.4699" lon="3.71635">
        <ele>104.78</ele>
        <time>2021-01-14T13:12:50Z</time>
      </trkpt>
      <trkpt lat="43.47003" lon="3.71635">
        <ele>107.81</ele>
        <time>2021-01-14T13:13:03Z</time>
      </trkpt>
      <trkpt lat="43.47022" lon="3.71637">
        <ele>107.46</ele>
        <time>2021-01-14T13:13:20Z</time>
      </trkpt>
      <trkpt lat="43.47045" lon="3.71641">
        <ele>108.98</ele>
        <time>2021-01-14T13:13:41Z</time>
      </trkpt>
      <trkpt lat="43.4706" lon="3.71646">
        <ele>109.06</ele>
        <time>2021-01-14T13:13:55Z</time>
      </trkpt>
      <trkpt lat="43.47079" lon="3.71652">
        <ele>111.05</ele>
        <time>2021-01-14T13:14:11Z</time>
      </trkpt>
      <trkpt lat="43.47091" lon="3.71657">
        <ele>112.63</ele>
        <time>2021-01-14T13:14:22Z</time>
      </trkpt>
      <trkpt lat="43.47095" lon="3.71659">
        <ele>112.79</ele>
        <time>2021-01-14T13:14:26Z</time>
      </trkpt>
      <trkpt lat="43.47115" lon="3.7167">
        <ele>113.82</ele>
        <time>2021-01-14T13:14:45Z</time>
      </trkpt>
      <trkpt lat="43.47136" lon="3.71679">
        <ele>114.17</ele>
        <time>2021-01-14T13:15:05Z</time>
      </trkpt>
      <trkpt lat="43.47157" lon="3.71687">
        <ele>115.83</ele>
        <time>2021-01-14T13:15:24Z</time>
      </trkpt>
      <trkpt lat="43.47174" lon="3.71693">
        <ele>117.21</ele>
        <time>2021-01-14T13:15:40Z</time>
      </trkpt>
      <trkpt lat="43.47194" lon="3.71697">
        <ele>118.56</ele>
        <time>2021-01-14T13:15:59Z</time>
      </trkpt>
      <trkpt lat="43.4721" lon="3.71701">
        <ele>118.84</ele>
        <time>2021-01-14T13:16:14Z</time>
      </trkpt>
      <trkpt lat="43.4723" lon="3.71707">
        <ele>120.43</ele>
        <time>2021-01-14T13:16:34Z</time>
      </trkpt>
      <trkpt lat="43.47247" lon="3.71712">
        <ele>122.05</ele>
        <time>2021-01-14T13:16:49Z</time>
      </trkpt>
      <trkpt lat="43.47265" lon="3.71717">
        <ele>124.1</ele>
        <time>2021-01-14T13:17:05Z</time>
      </trkpt>
      <trkpt lat="43.47284" lon="3.7172">
        <ele>125.04</ele>
        <time>2021-01-14T13:17:21Z</time>
      </trkpt>
      <trkpt lat="43.47306" lon="3.71714">
        <ele>126.8</ele>
        <time>2021-01-14T13:17:41Z</time>
      </trkpt>
      <trkpt lat="43.47311" lon="3.71711">
        <ele>127</ele>
        <time>2021-01-14T13:17:47Z</time>
      </trkpt>
      <trkpt lat="43.47322" lon="3.71705">
        <ele>128.42</ele>
        <time>2021-01-14T13:17:59Z</time>
      </trkpt>
      <trkpt lat="43.4734" lon="3.71697">
        <ele>130.74</ele>
        <time>2021-01-14T13:18:17Z</time>
      </trkpt>
      <trkpt lat="43.47358" lon="3.71686">
        <ele>132.71</ele>
        <time>2021-01-14T13:18:36Z</time>
      </trkpt>
      <trkpt lat="43.47371" lon="3.71672">
        <ele>133.55</ele>
        <time>2021-01-14T13:18:52Z</time>
      </trkpt>
      <trkpt lat="43.47387" lon="3.71662">
        <ele>136.54</ele>
        <time>2021-01-14T13:19:09Z</time>
      </trkpt>
      <trkpt lat="43.47392" lon="3.7166">
        <ele>137.25</ele>
        <time>2021-01-14T13:19:14Z</time>
      </trkpt>
      <trkpt lat="43.47407" lon="3.71652">
        <ele>136.73</ele>
        <time>2021-01-14T13:19:31Z</time>
      </trkpt>
      <trkpt lat="43.47408" lon="3.71654">
        <ele>138.3</ele>
        <time>2021-01-14T13:19:52Z</time>
      </trkpt>
      <trkpt lat="43.47408" lon="3.71653">
        <ele>138.32</ele>
        <time>2021-01-14T13:20:21Z</time>
      </trkpt>
      <trkpt lat="43.47407" lon="3.71654">
        <ele>139.3</ele>
        <time>2021-01-14T13:20:53Z</time>
      </trkpt>
      <trkpt lat="43.47407" lon="3.71654">
        <ele>138.53</ele>
        <time>2021-01-14T13:21:31Z</time>
      </trkpt>
      <trkpt lat="43.47409" lon="3.71655">
        <ele>138.35</ele>
        <time>2021-01-14T13:21:57Z</time>
      </trkpt>
      <trkpt lat="43.47408" lon="3.71655">
        <ele>138.29</ele>
        <time>2021-01-14T13:22:18Z</time>
      </trkpt>
      <trkpt lat="43.47409" lon="3.71653">
        <ele>139.69</ele>
        <time>2021-01-14T13:22:49Z</time>
      </trkpt>
      <trkpt lat="43.47409" lon="3.71655">
        <ele>139.74</ele>
        <time>2021-01-14T13:23:17Z</time>
      </trkpt>
      <trkpt lat="43.47409" lon="3.71664">
        <ele>139.39</ele>
        <time>2021-01-14T13:23:27Z</time>
      </trkpt>
      <trkpt lat="43.47407" lon="3.71676">
        <ele>139.19</ele>
        <time>2021-01-14T13:23:35Z</time>
      </trkpt>
      <trkpt lat="43.47398" lon="3.71681">
        <ele>138.35</ele>
        <time>2021-01-14T13:23:49Z</time>
      </trkpt>
      <trkpt lat="43.47402" lon="3.71687">
        <ele>138.61</ele>
        <time>2021-01-14T13:23:56Z</time>
      </trkpt>
      <trkpt lat="43.474" lon="3.71706">
        <ele>140.05</ele>
        <time>2021-01-14T13:24:10Z</time>
      </trkpt>
      <trkpt lat="43.47388" lon="3.71729">
        <ele>142.41</ele>
        <time>2021-01-14T13:24:28Z</time>
      </trkpt>
      <trkpt lat="43.47376" lon="3.71746">
        <ele>143.84</ele>
        <time>2021-01-14T13:24:44Z</time>
      </trkpt>
      <trkpt lat="43.47375" lon="3.7175">
        <ele>143.85</ele>
        <time>2021-01-14T13:24:47Z</time>
      </trkpt>
      <trkpt lat="43.47364" lon="3.71774">
        <ele>143.71</ele>
        <time>2021-01-14T13:25:04Z</time>
      </trkpt>
      <trkpt lat="43.47347" lon="3.71801">
        <ele>144.85</ele>
        <time>2021-01-14T13:25:25Z</time>
      </trkpt>
      <trkpt lat="43.47346" lon="3.71802">
        <ele>144.83</ele>
        <time>2021-01-14T13:25:28Z</time>
      </trkpt>
      <trkpt lat="43.47343" lon="3.71805">
        <ele>145.06</ele>
        <time>2021-01-14T13:25:31Z</time>
      </trkpt>
      <trkpt lat="43.47325" lon="3.71825">
        <ele>146.91</ele>
        <time>2021-01-14T13:25:50Z</time>
      </trkpt>
      <trkpt lat="43.47306" lon="3.71843">
        <ele>147.42</ele>
        <time>2021-01-14T13:26:08Z</time>
      </trkpt>
      <trkpt lat="43.47291" lon="3.71855">
        <ele>148.38</ele>
        <time>2021-01-14T13:26:22Z</time>
      </trkpt>
      <trkpt lat="43.47277" lon="3.71867">
        <ele>149.3</ele>
        <time>2021-01-14T13:26:36Z</time>
      </trkpt>
      <trkpt lat="43.47259" lon="3.71884">
        <ele>150.61</ele>
        <time>2021-01-14T13:26:55Z</time>
      </trkpt>
      <trkpt lat="43.4725" lon="3.71903">
        <ele>151.63</ele>
        <time>2021-01-14T13:27:09Z</time>
      </trkpt>
      <trkpt lat="43.47253" lon="3.71934">
        <ele>152.31</ele>
        <time>2021-01-14T13:27:29Z</time>
      </trkpt>
      <trkpt lat="43.47261" lon="3.71951">
        <ele>153.16</ele>
        <time>2021-01-14T13:27:46Z</time>
      </trkpt>
      <trkpt lat="43.47263" lon="3.71954">
        <ele>153.69</ele>
        <time>2021-01-14T13:28:01Z</time>
      </trkpt>
      <trkpt lat="43.47282" lon="3.7198">
        <ele>155.56</ele>
        <time>2021-01-14T13:28:22Z</time>
      </trkpt>
      <trkpt lat="43.47297" lon="3.72001">
        <ele>157.5</ele>
        <time>2021-01-14T13:28:39Z</time>
      </trkpt>
      <trkpt lat="43.4731" lon="3.72019">
        <ele>158.14</ele>
        <time>2021-01-14T13:28:57Z</time>
      </trkpt>
      <trkpt lat="43.47323" lon="3.72033">
        <ele>159.13</ele>
        <time>2021-01-14T13:29:11Z</time>
      </trkpt>
      <trkpt lat="43.47332" lon="3.72043">
        <ele>160.62</ele>
        <time>2021-01-14T13:29:24Z</time>
      </trkpt>
      <trkpt lat="43.47334" lon="3.72047">
        <ele>161.31</ele>
        <time>2021-01-14T13:29:32Z</time>
      </trkpt>
      <trkpt lat="43.47338" lon="3.72051">
        <ele>161.99</ele>
        <time>2021-01-14T13:29:50Z</time>
      </trkpt>
      <trkpt lat="43.4735" lon="3.72062">
        <ele>161.79</ele>
        <time>2021-01-14T13:30:07Z</time>
      </trkpt>
      <trkpt lat="43.47358" lon="3.72069">
        <ele>162.76</ele>
        <time>2021-01-14T13:30:22Z</time>
      </trkpt>
      <trkpt lat="43.47363" lon="3.72073">
        <ele>163.87</ele>
        <time>2021-01-14T13:30:46Z</time>
      </trkpt>
      <trkpt lat="43.47375" lon="3.7208">
        <ele>164.55</ele>
        <time>2021-01-14T13:31:07Z</time>
      </trkpt>
      <trkpt lat="43.4739" lon="3.72087">
        <ele>165.59</ele>
        <time>2021-01-14T13:31:23Z</time>
      </trkpt>
      <trkpt lat="43.47406" lon="3.72092">
        <ele>165.61</ele>
        <time>2021-01-14T13:31:38Z</time>
      </trkpt>
      <trkpt lat="43.47421" lon="3.721">
        <ele>167.64</ele>
        <time>2021-01-14T13:31:53Z</time>
      </trkpt>
      <trkpt lat="43.4744" lon="3.7211">
        <ele>169</ele>
        <time>2021-01-14T13:32:11Z</time>
      </trkpt>
      <trkpt lat="43.47459" lon="3.7212">
        <ele>171.59</ele>
        <time>2021-01-14T13:32:30Z</time>
      </trkpt>
      <trkpt lat="43.47474" lon="3.72131">
        <ele>171.81</ele>
        <time>2021-01-14T13:32:46Z</time>
      </trkpt>
      <trkpt lat="43.47491" lon="3.72148">
        <ele>172.93</ele>
        <time>2021-01-14T13:33:06Z</time>
      </trkpt>
      <trkpt lat="43.47493" lon="3.7215">
        <ele>173.36</ele>
        <time>2021-01-14T13:33:20Z</time>
      </trkpt>
      <trkpt lat="43.475" lon="3.72161">
        <ele>174.42</ele>
        <time>2021-01-14T13:33:35Z</time>
      </trkpt>
      <trkpt lat="43.47501" lon="3.72165">
        <ele>174.83</ele>
        <time>2021-01-14T13:33:39Z</time>
      </trkpt>
      <trkpt lat="43.47509" lon="3.72192">
        <ele>176.59</ele>
        <time>2021-01-14T13:33:55Z</time>
      </trkpt>
      <trkpt lat="43.4751" lon="3.72196">
        <ele>176.72</ele>
        <time>2021-01-14T13:33:58Z</time>
      </trkpt>
      <trkpt lat="43.47517" lon="3.72222">
        <ele>178.2</ele>
        <time>2021-01-14T13:34:14Z</time>
      </trkpt>
      <trkpt lat="43.47529" lon="3.72247">
        <ele>178.65</ele>
        <time>2021-01-14T13:34:31Z</time>
      </trkpt>
      <trkpt lat="43.47545" lon="3.72258">
        <ele>180.36</ele>
        <time>2021-01-14T13:34:47Z</time>
      </trkpt>
      <trkpt lat="43.47564" lon="3.72262">
        <ele>181.56</ele>
        <time>2021-01-14T13:35:06Z</time>
      </trkpt>
      <trkpt lat="43.47586" lon="3.72263">
        <ele>183.18</ele>
        <time>2021-01-14T13:35:26Z</time>
      </trkpt>
      <trkpt lat="43.47607" lon="3.72266">
        <ele>184.44</ele>
        <time>2021-01-14T13:35:44Z</time>
      </trkpt>
      <trkpt lat="43.47613" lon="3.72268">
        <ele>185.82</ele>
        <time>2021-01-14T13:35:50Z</time>
      </trkpt>
      <trkpt lat="43.47638" lon="3.7228">
        <ele>187.36</ele>
        <time>2021-01-14T13:36:12Z</time>
      </trkpt>
      <trkpt lat="43.47657" lon="3.72291">
        <ele>189.84</ele>
        <time>2021-01-14T13:36:29Z</time>
      </trkpt>
      <trkpt lat="43.47676" lon="3.72302">
        <ele>190.64</ele>
        <time>2021-01-14T13:36:47Z</time>
      </trkpt>
      <trkpt lat="43.47685" lon="3.7231">
        <ele>192.1</ele>
        <time>2021-01-14T13:36:59Z</time>
      </trkpt>
      <trkpt lat="43.47689" lon="3.72313">
        <ele>192.6</ele>
        <time>2021-01-14T13:37:03Z</time>
      </trkpt>
      <trkpt lat="43.47697" lon="3.72323">
        <ele>193.24</ele>
        <time>2021-01-14T13:37:12Z</time>
      </trkpt>
      <trkpt lat="43.47706" lon="3.72334">
        <ele>194.69</ele>
        <time>2021-01-14T13:37:23Z</time>
      </trkpt>
      <trkpt lat="43.47714" lon="3.72344">
        <ele>195.26</ele>
        <time>2021-01-14T13:37:33Z</time>
      </trkpt>
      <trkpt lat="43.47727" lon="3.72366">
        <ele>196.56</ele>
        <time>2021-01-14T13:37:52Z</time>
      </trkpt>
      <trkpt lat="43.47739" lon="3.72386">
        <ele>198.62</ele>
        <time>2021-01-14T13:38:09Z</time>
      </trkpt>
      <trkpt lat="43.4775" lon="3.72406">
        <ele>199.78</ele>
        <time>2021-01-14T13:38:26Z</time>
      </trkpt>
      <trkpt lat="43.47763" lon="3.7243">
        <ele>200.54</ele>
        <time>2021-01-14T13:38:46Z</time>
      </trkpt>
      <trkpt lat="43.47773" lon="3.72452">
        <ele>200.68</ele>
        <time>2021-01-14T13:39:03Z</time>
      </trkpt>
      <trkpt lat="43.47783" lon="3.72472">
        <ele>201.89</ele>
        <time>2021-01-14T13:39:20Z</time>
      </trkpt>
      <trkpt lat="43.47795" lon="3.72487">
        <ele>204.04</ele>
        <time>2021-01-14T13:39:36Z</time>
      </trkpt>
      <trkpt lat="43.478" lon="3.72492">
        <ele>204.79</ele>
        <time>2021-01-14T13:39:42Z</time>
      </trkpt>
      <trkpt lat="43.47808" lon="3.72502">
        <ele>205.58</ele>
        <time>2021-01-14T13:39:53Z</time>
      </trkpt>
      <trkpt lat="43.47813" lon="3.72506">
        <ele>205.57</ele>
        <time>2021-01-14T13:39:59Z</time>
      </trkpt>
      <trkpt lat="43.47825" lon="3.7252">
        <ele>206.26</ele>
        <time>2021-01-14T13:40:16Z</time>
      </trkpt>
      <trkpt lat="43.47834" lon="3.72529">
        <ele>206.9</ele>
        <time>2021-01-14T13:40:37Z</time>
      </trkpt>
      <trkpt lat="43.4784" lon="3.72532">
        <ele>207.4</ele>
        <time>2021-01-14T13:40:58Z</time>
      </trkpt>
      <trkpt lat="43.47839" lon="3.72532">
        <ele>208.56</ele>
        <time>2021-01-14T13:41:27Z</time>
      </trkpt>
      <trkpt lat="43.47839" lon="3.72531">
        <ele>208.74</ele>
        <time>2021-01-14T13:41:58Z</time>
      </trkpt>
      <trkpt lat="43.47838" lon="3.7253">
        <ele>207.87</ele>
        <time>2021-01-14T13:42:28Z</time>
      </trkpt>
      <trkpt lat="43.47827" lon="3.72524">
        <ele>206.91</ele>
        <time>2021-01-14T13:42:46Z</time>
      </trkpt>
      <trkpt lat="43.47824" lon="3.72521">
        <ele>207.18</ele>
        <time>2021-01-14T13:42:50Z</time>
      </trkpt>
      <trkpt lat="43.4782" lon="3.72516">
        <ele>207</ele>
        <time>2021-01-14T13:43:06Z</time>
      </trkpt>
      <trkpt lat="43.47834" lon="3.72526">
        <ele>207.81</ele>
        <time>2021-01-14T13:43:26Z</time>
      </trkpt>
      <trkpt lat="43.47837" lon="3.72532">
        <ele>207.81</ele>
        <time>2021-01-14T13:43:45Z</time>
      </trkpt>
      <trkpt lat="43.47837" lon="3.72534">
        <ele>207.07</ele>
        <time>2021-01-14T13:44:09Z</time>
      </trkpt>
      <trkpt lat="43.4784" lon="3.72535">
        <ele>208.36</ele>
        <time>2021-01-14T13:44:35Z</time>
      </trkpt>
      <trkpt lat="43.47843" lon="3.72533">
        <ele>208.54</ele>
        <time>2021-01-14T13:44:58Z</time>
      </trkpt>
      <trkpt lat="43.47845" lon="3.72534">
        <ele>208.68</ele>
        <time>2021-01-14T13:45:00Z</time>
      </trkpt>
      <trkpt lat="43.4786" lon="3.72539">
        <ele>208.61</ele>
        <time>2021-01-14T13:45:16Z</time>
      </trkpt>
      <trkpt lat="43.47863" lon="3.7254">
        <ele>208.71</ele>
        <time>2021-01-14T13:45:18Z</time>
      </trkpt>
      <trkpt lat="43.47875" lon="3.72546">
        <ele>208.71</ele>
        <time>2021-01-14T13:45:28Z</time>
      </trkpt>
      <trkpt lat="43.47892" lon="3.72552">
        <ele>209.39</ele>
        <time>2021-01-14T13:45:43Z</time>
      </trkpt>
      <trkpt lat="43.47908" lon="3.72559">
        <ele>209.91</ele>
        <time>2021-01-14T13:45:57Z</time>
      </trkpt>
      <trkpt lat="43.47922" lon="3.72567">
        <ele>210.61</ele>
        <time>2021-01-14T13:46:10Z</time>
      </trkpt>
      <trkpt lat="43.47938" lon="3.72573">
        <ele>211.77</ele>
        <time>2021-01-14T13:46:23Z</time>
      </trkpt>
      <trkpt lat="43.47957" lon="3.72584">
        <ele>211.91</ele>
        <time>2021-01-14T13:46:39Z</time>
      </trkpt>
      <trkpt lat="43.47974" lon="3.726">
        <ele>213.06</ele>
        <time>2021-01-14T13:46:55Z</time>
      </trkpt>
      <trkpt lat="43.47984" lon="3.7261">
        <ele>213.35</ele>
        <time>2021-01-14T13:47:05Z</time>
      </trkpt>
      <trkpt lat="43.48001" lon="3.72626">
        <ele>213.85</ele>
        <time>2021-01-14T13:47:22Z</time>
      </trkpt>
      <trkpt lat="43.48003" lon="3.72628">
        <ele>213.87</ele>
        <time>2021-01-14T13:47:24Z</time>
      </trkpt>
      <trkpt lat="43.4801" lon="3.72632">
        <ele>214.24</ele>
        <time>2021-01-14T13:47:30Z</time>
      </trkpt>
      <trkpt lat="43.48029" lon="3.72646">
        <ele>213.37</ele>
        <time>2021-01-14T13:47:48Z</time>
      </trkpt>
      <trkpt lat="43.48034" lon="3.72648">
        <ele>213.8</ele>
        <time>2021-01-14T13:47:52Z</time>
      </trkpt>
      <trkpt lat="43.48052" lon="3.72655">
        <ele>214.6</ele>
        <time>2021-01-14T13:48:06Z</time>
      </trkpt>
      <trkpt lat="43.48069" lon="3.7266">
        <ele>215.15</ele>
        <time>2021-01-14T13:48:20Z</time>
      </trkpt>
      <trkpt lat="43.48089" lon="3.72667">
        <ele>215.32</ele>
        <time>2021-01-14T13:48:37Z</time>
      </trkpt>
      <trkpt lat="43.48105" lon="3.72677">
        <ele>215.91</ele>
        <time>2021-01-14T13:48:51Z</time>
      </trkpt>
      <trkpt lat="43.48123" lon="3.72691">
        <ele>216.43</ele>
        <time>2021-01-14T13:49:09Z</time>
      </trkpt>
      <trkpt lat="43.48138" lon="3.72705">
        <ele>216.47</ele>
        <time>2021-01-14T13:49:24Z</time>
      </trkpt>
      <trkpt lat="43.48153" lon="3.72725">
        <ele>217.09</ele>
        <time>2021-01-14T13:49:43Z</time>
      </trkpt>
      <trkpt lat="43.48167" lon="3.72741">
        <ele>216.81</ele>
        <time>2021-01-14T13:49:59Z</time>
      </trkpt>
      <trkpt lat="43.48179" lon="3.72753">
        <ele>217.33</ele>
        <time>2021-01-14T13:50:12Z</time>
      </trkpt>
      <trkpt lat="43.48189" lon="3.72762">
        <ele>215.68</ele>
        <time>2021-01-14T13:50:29Z</time>
      </trkpt>
      <trkpt lat="43.48194" lon="3.72766">
        <ele>217.03</ele>
        <time>2021-01-14T13:50:50Z</time>
      </trkpt>
      <trkpt lat="43.48193" lon="3.72784">
        <ele>215.75</ele>
        <time>2021-01-14T13:51:13Z</time>
      </trkpt>
      <trkpt lat="43.48198" lon="3.72786">
        <ele>213.72</ele>
        <time>2021-01-14T13:51:34Z</time>
      </trkpt>
      <trkpt lat="43.48203" lon="3.72786">
        <ele>212.58</ele>
        <time>2021-01-14T13:52:01Z</time>
      </trkpt>
      <trkpt lat="43.48207" lon="3.72788">
        <ele>210.39</ele>
        <time>2021-01-14T13:52:19Z</time>
      </trkpt>
      <trkpt lat="43.48218" lon="3.72782">
        <ele>207.8</ele>
        <time>2021-01-14T13:52:41Z</time>
      </trkpt>
      <trkpt lat="43.48223" lon="3.72781">
        <ele>206</ele>
        <time>2021-01-14T13:52:50Z</time>
      </trkpt>
      <trkpt lat="43.48228" lon="3.72786">
        <ele>202.8</ele>
        <time>2021-01-14T13:53:09Z</time>
      </trkpt>
      <trkpt lat="43.48232" lon="3.72787">
        <ele>199.67</ele>
        <time>2021-01-14T13:53:21Z</time>
      </trkpt>
      <trkpt lat="43.48235" lon="3.7279">
        <ele>196.52</ele>
        <time>2021-01-14T13:53:33Z</time>
      </trkpt>
      <trkpt lat="43.48241" lon="3.72795">
        <ele>195.9</ele>
        <time>2021-01-14T13:53:55Z</time>
      </trkpt>
      <trkpt lat="43.48239" lon="3.72796">
        <ele>196.53</ele>
        <time>2021-01-14T13:54:18Z</time>
      </trkpt>
      <trkpt lat="43.4824" lon="3.72798">
        <ele>196.54</ele>
        <time>2021-01-14T13:54:42Z</time>
      </trkpt>
      <trkpt lat="43.48246" lon="3.72801">
        <ele>193.15</ele>
        <time>2021-01-14T13:54:53Z</time>
      </trkpt>
      <trkpt lat="43.48248" lon="3.72803">
        <ele>190.12</ele>
        <time>2021-01-14T13:55:01Z</time>
      </trkpt>
      <trkpt lat="43.48253" lon="3.72805">
        <ele>188.83</ele>
        <time>2021-01-14T13:55:10Z</time>
      </trkpt>
      <trkpt lat="43.48258" lon="3.72815">
        <ele>185.54</ele>
        <time>2021-01-14T13:55:28Z</time>
      </trkpt>
      <trkpt lat="43.48263" lon="3.72826">
        <ele>186.92</ele>
        <time>2021-01-14T13:55:50Z</time>
      </trkpt>
      <trkpt lat="43.48267" lon="3.72826">
        <ele>186.44</ele>
        <time>2021-01-14T13:56:13Z</time>
      </trkpt>
      <trkpt lat="43.4827" lon="3.72825">
        <ele>184.27</ele>
        <time>2021-01-14T13:56:47Z</time>
      </trkpt>
      <trkpt lat="43.48271" lon="3.72821">
        <ele>182.68</ele>
        <time>2021-01-14T13:57:07Z</time>
      </trkpt>
      <trkpt lat="43.48284" lon="3.72814">
        <ele>182.3</ele>
        <time>2021-01-14T13:57:27Z</time>
      </trkpt>
      <trkpt lat="43.48289" lon="3.72809">
        <ele>179.18</ele>
        <time>2021-01-14T13:57:38Z</time>
      </trkpt>
      <trkpt lat="43.48293" lon="3.72806">
        <ele>176.1</ele>
        <time>2021-01-14T13:57:49Z</time>
      </trkpt>
      <trkpt lat="43.48297" lon="3.72804">
        <ele>172.52</ele>
        <time>2021-01-14T13:57:55Z</time>
      </trkpt>
      <trkpt lat="43.48297" lon="3.72803">
        <ele>172.52</ele>
        <time>2021-01-14T13:57:56Z</time>
      </trkpt>
      <trkpt lat="43.48309" lon="3.72801">
        <ele>172.46</ele>
        <time>2021-01-14T13:58:15Z</time>
      </trkpt>
      <trkpt lat="43.48317" lon="3.728">
        <ele>169.44</ele>
        <time>2021-01-14T13:58:31Z</time>
      </trkpt>
      <trkpt lat="43.48324" lon="3.72788">
        <ele>167.58</ele>
        <time>2021-01-14T13:58:50Z</time>
      </trkpt>
      <trkpt lat="43.48334" lon="3.72774">
        <ele>166.3</ele>
        <time>2021-01-14T13:59:10Z</time>
      </trkpt>
      <trkpt lat="43.4834" lon="3.72771">
        <ele>164.41</ele>
        <time>2021-01-14T13:59:32Z</time>
      </trkpt>
      <trkpt lat="43.48344" lon="3.72776">
        <ele>165.48</ele>
        <time>2021-01-14T14:00:00Z</time>
      </trkpt>
      <trkpt lat="43.48352" lon="3.72774">
        <ele>164.43</ele>
        <time>2021-01-14T14:00:19Z</time>
      </trkpt>
      <trkpt lat="43.48366" lon="3.72774">
        <ele>162.68</ele>
        <time>2021-01-14T14:00:38Z</time>
      </trkpt>
      <trkpt lat="43.48376" lon="3.72777">
        <ele>161.46</ele>
        <time>2021-01-14T14:00:56Z</time>
      </trkpt>
      <trkpt lat="43.48381" lon="3.72774">
        <ele>160.2</ele>
        <time>2021-01-14T14:01:10Z</time>
      </trkpt>
      <trkpt lat="43.484" lon="3.72778">
        <ele>156.98</ele>
        <time>2021-01-14T14:01:34Z</time>
      </trkpt>
      <trkpt lat="43.48419" lon="3.72777">
        <ele>153.96</ele>
        <time>2021-01-14T14:01:54Z</time>
      </trkpt>
      <trkpt lat="43.48438" lon="3.72769">
        <ele>152.81</ele>
        <time>2021-01-14T14:02:17Z</time>
      </trkpt>
      <trkpt lat="43.4845" lon="3.72759">
        <ele>150.72</ele>
        <time>2021-01-14T14:02:38Z</time>
      </trkpt>
      <trkpt lat="43.4846" lon="3.7275">
        <ele>148.3</ele>
        <time>2021-01-14T14:03:00Z</time>
      </trkpt>
      <trkpt lat="43.48472" lon="3.72735">
        <ele>147.81</ele>
        <time>2021-01-14T14:03:21Z</time>
      </trkpt>
      <trkpt lat="43.48472" lon="3.72734">
        <ele>147.76</ele>
        <time>2021-01-14T14:03:22Z</time>
      </trkpt>
      <trkpt lat="43.48485" lon="3.7272">
        <ele>146.47</ele>
        <time>2021-01-14T14:03:42Z</time>
      </trkpt>
      <trkpt lat="43.48499" lon="3.72705">
        <ele>144.08</ele>
        <time>2021-01-14T14:04:02Z</time>
      </trkpt>
      <trkpt lat="43.48513" lon="3.72691">
        <ele>141.08</ele>
        <time>2021-01-14T14:04:22Z</time>
      </trkpt>
      <trkpt lat="43.48523" lon="3.72677">
        <ele>137.98</ele>
        <time>2021-01-14T14:04:44Z</time>
      </trkpt>
      <trkpt lat="43.48525" lon="3.72672">
        <ele>137.53</ele>
        <time>2021-01-14T14:05:12Z</time>
      </trkpt>
      <trkpt lat="43.4853" lon="3.72675">
        <ele>138.51</ele>
        <time>2021-01-14T14:05:44Z</time>
      </trkpt>
      <trkpt lat="43.48538" lon="3.72681">
        <ele>141.66</ele>
        <time>2021-01-14T14:05:57Z</time>
      </trkpt>
      <trkpt lat="43.48545" lon="3.72688">
        <ele>144.82</ele>
        <time>2021-01-14T14:06:11Z</time>
      </trkpt>
      <trkpt lat="43.48549" lon="3.72701">
        <ele>147.5</ele>
        <time>2021-01-14T14:06:31Z</time>
      </trkpt>
      <trkpt lat="43.48553" lon="3.72714">
        <ele>150.53</ele>
        <time>2021-01-14T14:06:51Z</time>
      </trkpt>
      <trkpt lat="43.4856" lon="3.72726">
        <ele>153.8</ele>
        <time>2021-01-14T14:07:11Z</time>
      </trkpt>
      <trkpt lat="43.48567" lon="3.72738">
        <ele>156.68</ele>
        <time>2021-01-14T14:07:35Z</time>
      </trkpt>
      <trkpt lat="43.48572" lon="3.72744">
        <ele>159.76</ele>
        <time>2021-01-14T14:07:52Z</time>
      </trkpt>
      <trkpt lat="43.48582" lon="3.72744">
        <ele>162.61</ele>
        <time>2021-01-14T14:08:13Z</time>
      </trkpt>
      <trkpt lat="43.48589" lon="3.7275">
        <ele>164.34</ele>
        <time>2021-01-14T14:08:39Z</time>
      </trkpt>
      <trkpt lat="43.48587" lon="3.72754">
        <ele>165.08</ele>
        <time>2021-01-14T14:09:07Z</time>
      </trkpt>
      <trkpt lat="43.48597" lon="3.72746">
        <ele>165.6</ele>
        <time>2021-01-14T14:09:32Z</time>
      </trkpt>
      <trkpt lat="43.48603" lon="3.72732">
        <ele>163.81</ele>
        <time>2021-01-14T14:09:51Z</time>
      </trkpt>
      <trkpt lat="43.48619" lon="3.72737">
        <ele>166.58</ele>
        <time>2021-01-14T14:10:14Z</time>
      </trkpt>
      <trkpt lat="43.48635" lon="3.72738">
        <ele>169.49</ele>
        <time>2021-01-14T14:10:37Z</time>
      </trkpt>
      <trkpt lat="43.48651" lon="3.72736">
        <ele>172.44</ele>
        <time>2021-01-14T14:10:57Z</time>
      </trkpt>
      <trkpt lat="43.48674" lon="3.72735">
        <ele>175.24</ele>
        <time>2021-01-14T14:11:20Z</time>
      </trkpt>
      <trkpt lat="43.48684" lon="3.72727">
        <ele>178</ele>
        <time>2021-01-14T14:11:37Z</time>
      </trkpt>
      <trkpt lat="43.48699" lon="3.72722">
        <ele>181.02</ele>
        <time>2021-01-14T14:11:54Z</time>
      </trkpt>
      <trkpt lat="43.48713" lon="3.7272">
        <ele>182.13</ele>
        <time>2021-01-14T14:12:14Z</time>
      </trkpt>
      <trkpt lat="43.48716" lon="3.72718">
        <ele>184.22</ele>
        <time>2021-01-14T14:12:35Z</time>
      </trkpt>
      <trkpt lat="43.4872" lon="3.72705">
        <ele>184.89</ele>
        <time>2021-01-14T14:12:57Z</time>
      </trkpt>
      <trkpt lat="43.48724" lon="3.72703">
        <ele>185.23</ele>
        <time>2021-01-14T14:13:15Z</time>
      </trkpt>
    </trkseg>
  </trk>
</gpx>